PWSweather.com
Personal Weather Stations
Station Observations
KOHREFORM1
Reform, Ohio, Newark, OH 43055

Reform, OhioNewark, OH 43055

Lat: 40.1502, Lon: -82.2417

Elevation: 1043

Station Type: Davis Vantage Pro 2 Plus

randysweatheronthehill.com

High Low Average
Temperature 45.2°F7.3°C 36.6°F2.6°C 39.1°F3.9°C
Dew Point 41.9°F5.5°C 28.1°F-2.2°C 33.1°F0.6°C
Winds 13.0 mph 20.9 kmh Calm Calm 3.0 mph W4.8 kmh W
Wind Gusts 20.0 mph32.2 kmh -- 8.0 mph12.9 kmh
Humidity 89% 71% 79%
Pressure 30.28 in1025.4 mb 29.93 in1013.5 mb -
Precipitation 0.01 in0.3 mm - -
Hour Temp Dew Point Humidity Winds Wind Gusts Pressure Precip Precip Rate Daily Precip Total
12:00 AM 45.2°F7.3°C 41.9°F5.5°C 88% 2.0 mph NW3.2 kmh NW 4.0 mph6.4 kmh 29.93 in1013.5 mb 0.00 in0.0 mm 0.00 in0.0 mm 0.00 in0.0 mm
12:02 AM 45.2°F7.3°C 41.9°F5.5°C 88% Calm Calm 4.0 mph6.4 kmh 29.94 in1013.9 mb 0.00 in0.0 mm 0.00 in0.0 mm 0.00 in0.0 mm
12:04 AM 45.2°F7.3°C 41.9°F5.5°C 88% 2.0 mph NW3.2 kmh NW 4.0 mph6.4 kmh 29.94 in1013.9 mb 0.00 in0.0 mm 0.00 in0.0 mm 0.00 in0.0 mm
12:06 AM 45.2°F7.3°C 41.9°F5.5°C 88% 1.0 mph W1.6 kmh W 4.0 mph6.4 kmh 29.93 in1013.5 mb 0.00 in0.0 mm 0.00 in0.0 mm 0.00 in0.0 mm
12:08 AM 45.2°F7.3°C 41.9°F5.5°C 88% 2.0 mph WNW3.2 kmh WNW 6.0 mph9.7 kmh 29.93 in1013.5 mb 0.00 in0.0 mm 0.00 in0.0 mm 0.00 in0.0 mm
12:10 AM 45.2°F7.3°C 41.9°F5.5°C 88% Calm Calm 6.0 mph9.7 kmh 29.94 in1013.9 mb 0.00 in0.0 mm 0.00 in0.0 mm 0.00 in0.0 mm
12:12 AM 45.2°F7.3°C 41.9°F5.5°C 88% 3.0 mph W4.8 kmh W 6.0 mph9.7 kmh 29.94 in1013.9 mb 0.00 in0.0 mm 0.00 in0.0 mm 0.00 in0.0 mm
12:14 AM 45.2°F7.3°C 41.9°F5.5°C 88% 2.0 mph WNW3.2 kmh WNW 6.0 mph9.7 kmh 29.94 in1013.9 mb 0.00 in0.0 mm 0.00 in0.0 mm 0.00 in0.0 mm
12:16 AM 45.2°F7.3°C 41.9°F5.5°C 88% 1.0 mph W1.6 kmh W 6.0 mph9.7 kmh 29.94 in1013.9 mb 0.00 in0.0 mm 0.00 in0.0 mm 0.00 in0.0 mm
12:18 AM 45.1°F7.3°C 41.8°F5.4°C 88% 3.0 mph W4.8 kmh W 6.0 mph9.7 kmh 29.94 in1013.9 mb 0.00 in0.0 mm 0.00 in0.0 mm 0.00 in0.0 mm
12:20 AM 45.1°F7.3°C 41.8°F5.4°C 88% 3.0 mph WNW4.8 kmh WNW 6.0 mph9.7 kmh 29.94 in1013.9 mb 0.00 in0.0 mm 0.00 in0.0 mm 0.00 in0.0 mm
12:22 AM 45.1°F7.3°C 41.8°F5.4°C 88% 1.0 mph W1.6 kmh W 7.0 mph11.3 kmh 29.94 in1013.9 mb 0.00 in0.0 mm 0.00 in0.0 mm 0.00 in0.0 mm
12:24 AM 45.1°F7.3°C 41.8°F5.4°C 88% 2.0 mph WNW3.2 kmh WNW 7.0 mph11.3 kmh 29.94 in1013.9 mb 0.00 in0.0 mm 0.00 in0.0 mm 0.00 in0.0 mm
12:26 AM 45.1°F7.3°C 41.5°F5.3°C 87% 3.0 mph SW4.8 kmh SW 7.0 mph11.3 kmh 29.94 in1013.9 mb 0.00 in0.0 mm 0.00 in0.0 mm 0.00 in0.0 mm
12:28 AM 45.1°F7.3°C 41.5°F5.3°C 87% 2.0 mph W3.2 kmh W 13.0 mph20.9 kmh 29.94 in1013.9 mb 0.00 in0.0 mm 0.00 in0.0 mm 0.00 in0.0 mm
12:30 AM 45.0°F7.2°C 41.4°F5.2°C 87% 4.0 mph WNW6.4 kmh WNW 13.0 mph20.9 kmh 29.94 in1013.9 mb 0.00 in0.0 mm 0.00 in0.0 mm 0.00 in0.0 mm
12:32 AM 45.0°F7.2°C 41.4°F5.2°C 87% 1.0 mph WNW1.6 kmh WNW 13.0 mph20.9 kmh 29.94 in1013.9 mb 0.00 in0.0 mm 0.00 in0.0 mm 0.00 in0.0 mm
12:34 AM 44.9°F7.2°C 41.3°F5.2°C 87% 2.0 mph W3.2 kmh W 13.0 mph20.9 kmh 29.94 in1013.9 mb 0.00 in0.0 mm 0.00 in0.0 mm 0.00 in0.0 mm
12:36 AM 44.8°F7.1°C 41.2°F5.1°C 87% 1.0 mph W1.6 kmh W 13.0 mph20.9 kmh 29.94 in1013.9 mb 0.00 in0.0 mm 0.00 in0.0 mm 0.00 in0.0 mm
12:38 AM 44.7°F7.1°C 41.1°F5.1°C 87% 2.0 mph WNW3.2 kmh WNW 13.0 mph20.9 kmh 29.94 in1013.9 mb 0.00 in0.0 mm 0.00 in0.0 mm 0.00 in0.0 mm
12:40 AM 44.6°F7.0°C 41.0°F5.0°C 87% 2.0 mph WNW3.2 kmh WNW 13.0 mph20.9 kmh 29.94 in1013.9 mb 0.00 in0.0 mm 0.00 in0.0 mm 0.00 in0.0 mm
12:42 AM 44.5°F6.9°C 40.9°F4.9°C 87% 1.0 mph W1.6 kmh W 13.0 mph20.9 kmh 29.94 in1013.9 mb 0.00 in0.0 mm 0.00 in0.0 mm 0.00 in0.0 mm
12:44 AM 44.4°F6.9°C 40.8°F4.9°C 87% 2.0 mph WSW3.2 kmh WSW 13.0 mph20.9 kmh 29.94 in1013.9 mb 0.00 in0.0 mm 0.00 in0.0 mm 0.00 in0.0 mm
12:46 AM 44.3°F6.8°C 40.7°F4.8°C 87% 1.0 mph W1.6 kmh W 13.0 mph20.9 kmh 29.94 in1013.9 mb 0.00 in0.0 mm 0.00 in0.0 mm 0.00 in0.0 mm
12:48 AM 44.2°F6.8°C 40.6°F4.8°C 87% 2.0 mph WSW3.2 kmh WSW 6.0 mph9.7 kmh 29.94 in1013.9 mb 0.00 in0.0 mm 0.00 in0.0 mm 0.00 in0.0 mm
12:50 AM 44.2°F6.8°C 40.6°F4.8°C 87% 2.0 mph W3.2 kmh W 7.0 mph11.3 kmh 29.94 in1013.9 mb 0.00 in0.0 mm 0.00 in0.0 mm 0.00 in0.0 mm
12:52 AM 44.2°F6.8°C 40.6°F4.8°C 87% 1.0 mph W1.6 kmh W 7.0 mph11.3 kmh 29.93 in1013.5 mb 0.00 in0.0 mm 0.00 in0.0 mm 0.00 in0.0 mm
12:54 AM 44.1°F6.7°C 40.5°F4.7°C 87% 1.0 mph W1.6 kmh W 7.0 mph11.3 kmh 29.93 in1013.5 mb 0.00 in0.0 mm 0.00 in0.0 mm 0.00 in0.0 mm
12:56 AM 44.1°F6.7°C 40.5°F4.7°C 87% 2.0 mph WSW3.2 kmh WSW 7.0 mph11.3 kmh 29.94 in1013.9 mb 0.00 in0.0 mm 0.00 in0.0 mm 0.00 in0.0 mm
12:58 AM 44.1°F6.7°C 40.5°F4.7°C 87% 1.0 mph WSW1.6 kmh WSW 7.0 mph11.3 kmh 29.93 in1013.5 mb 0.00 in0.0 mm 0.00 in0.0 mm 0.00 in0.0 mm
01:00 AM 44.0°F6.7°C 40.4°F4.7°C 87% 1.0 mph WSW1.6 kmh WSW 7.0 mph11.3 kmh 29.93 in1013.5 mb 0.00 in0.0 mm 0.00 in0.0 mm 0.00 in0.0 mm
01:02 AM 44.0°F6.7°C 40.4°F4.7°C 87% 2.0 mph WSW3.2 kmh WSW 7.0 mph11.3 kmh 29.93 in1013.5 mb 0.00 in0.0 mm 0.00 in0.0 mm 0.00 in0.0 mm
01:04 AM 44.0°F6.7°C 40.7°F4.8°C 88% 1.0 mph SW1.6 kmh SW 7.0 mph11.3 kmh 29.93 in1013.5 mb 0.00 in0.0 mm 0.00 in0.0 mm 0.00 in0.0 mm
01:06 AM 44.0°F6.7°C 40.7°F4.8°C 88% 1.0 mph W1.6 kmh W 7.0 mph11.3 kmh 29.93 in1013.5 mb 0.00 in0.0 mm 0.00 in0.0 mm 0.00 in0.0 mm
01:08 AM 44.1°F6.7°C 40.8°F4.9°C 88% 2.0 mph W3.2 kmh W 7.0 mph11.3 kmh 29.93 in1013.5 mb 0.00 in0.0 mm 0.00 in0.0 mm 0.00 in0.0 mm
01:10 AM 44.1°F6.7°C 40.8°F4.9°C 88% 3.0 mph W4.8 kmh W 7.0 mph11.3 kmh 29.93 in1013.5 mb 0.00 in0.0 mm 0.00 in0.0 mm 0.00 in0.0 mm
01:12 AM 44.2°F6.8°C 40.9°F4.9°C 88% 1.0 mph WSW1.6 kmh WSW 7.0 mph11.3 kmh 29.93 in1013.5 mb 0.00 in0.0 mm 0.00 in0.0 mm 0.00 in0.0 mm
01:14 AM 44.3°F6.8°C 41.0°F5.0°C 88% 2.0 mph W3.2 kmh W 7.0 mph11.3 kmh 29.93 in1013.5 mb 0.00 in0.0 mm 0.00 in0.0 mm 0.00 in0.0 mm
01:16 AM 44.4°F6.9°C 41.1°F5.1°C 88% 2.0 mph WSW3.2 kmh WSW 7.0 mph11.3 kmh 29.93 in1013.5 mb 0.00 in0.0 mm 0.00 in0.0 mm 0.00 in0.0 mm
01:18 AM 44.4°F6.9°C 41.1°F5.1°C 88% 4.0 mph W6.4 kmh W 7.0 mph11.3 kmh 29.93 in1013.5 mb 0.00 in0.0 mm 0.00 in0.0 mm 0.00 in0.0 mm
01:20 AM 44.5°F6.9°C 41.2°F5.1°C 88% 1.0 mph WSW1.6 kmh WSW 7.0 mph11.3 kmh 29.93 in1013.5 mb 0.00 in0.0 mm 0.00 in0.0 mm 0.00 in0.0 mm
01:22 AM 44.6°F7.0°C 41.3°F5.2°C 88% 2.0 mph WSW3.2 kmh WSW 7.0 mph11.3 kmh 29.93 in1013.5 mb 0.00 in0.0 mm 0.00 in0.0 mm 0.00 in0.0 mm
01:24 AM 44.6°F7.0°C 41.3°F5.2°C 88% 1.0 mph WSW1.6 kmh WSW 7.0 mph11.3 kmh 29.93 in1013.5 mb 0.00 in0.0 mm 0.00 in0.0 mm 0.00 in0.0 mm
01:26 AM 44.7°F7.1°C 41.4°F5.2°C 88% 2.0 mph S3.2 kmh S 7.0 mph11.3 kmh 29.93 in1013.5 mb 0.00 in0.0 mm 0.00 in0.0 mm 0.00 in0.0 mm
01:28 AM 44.7°F7.1°C 41.4°F5.2°C 88% 1.0 mph WSW1.6 kmh WSW 8.0 mph12.9 kmh 29.93 in1013.5 mb 0.00 in0.0 mm 0.00 in0.0 mm 0.00 in0.0 mm
01:30 AM 44.7°F7.1°C 41.4°F5.2°C 88% 2.0 mph WSW3.2 kmh WSW 8.0 mph12.9 kmh 29.93 in1013.5 mb 0.00 in0.0 mm 0.00 in0.0 mm 0.00 in0.0 mm
01:32 AM 44.8°F7.1°C 41.5°F5.3°C 88% 2.0 mph WSW3.2 kmh WSW 8.0 mph12.9 kmh 29.93 in1013.5 mb 0.00 in0.0 mm 0.00 in0.0 mm 0.00 in0.0 mm
01:34 AM 44.8°F7.1°C 41.5°F5.3°C 88% 1.0 mph SW1.6 kmh SW 8.0 mph12.9 kmh 29.93 in1013.5 mb 0.00 in0.0 mm 0.00 in0.0 mm 0.00 in0.0 mm
01:36 AM 44.9°F7.2°C 41.6°F5.3°C 88% 1.0 mph W1.6 kmh W 8.0 mph12.9 kmh 29.93 in1013.5 mb 0.00 in0.0 mm 0.00 in0.0 mm 0.00 in0.0 mm
01:38 AM 44.9°F7.2°C 41.6°F5.3°C 88% 6.0 mph WSW9.7 kmh WSW 8.0 mph12.9 kmh 29.93 in1013.5 mb 0.00 in0.0 mm 0.00 in0.0 mm 0.00 in0.0 mm
01:40 AM 44.9°F7.2°C 41.6°F5.3°C 88% 1.0 mph W1.6 kmh W 8.0 mph12.9 kmh 29.93 in1013.5 mb 0.00 in0.0 mm 0.00 in0.0 mm 0.00 in0.0 mm
01:42 AM 44.9°F7.2°C 41.6°F5.3°C 88% 2.0 mph W3.2 kmh W 8.0 mph12.9 kmh 29.93 in1013.5 mb 0.00 in0.0 mm 0.00 in0.0 mm 0.00 in0.0 mm
01:44 AM 45.0°F7.2°C 41.7°F5.4°C 88% 3.0 mph WSW4.8 kmh WSW 8.0 mph12.9 kmh 29.93 in1013.5 mb 0.00 in0.0 mm 0.00 in0.0 mm 0.00 in0.0 mm
01:46 AM 45.0°F7.2°C 41.4°F5.2°C 87% 4.0 mph WSW6.4 kmh WSW 9.0 mph14.5 kmh 29.93 in1013.5 mb 0.00 in0.0 mm 0.00 in0.0 mm 0.00 in0.0 mm
01:48 AM 45.0°F7.2°C 41.4°F5.2°C 87% 3.0 mph WSW4.8 kmh WSW 9.0 mph14.5 kmh 29.93 in1013.5 mb 0.00 in0.0 mm 0.00 in0.0 mm 0.00 in0.0 mm
01:50 AM 45.0°F7.2°C 41.4°F5.2°C 87% 1.0 mph WSW1.6 kmh WSW 9.0 mph14.5 kmh 29.93 in1013.5 mb 0.00 in0.0 mm 0.00 in0.0 mm 0.00 in0.0 mm
01:52 AM 45.0°F7.2°C 41.4°F5.2°C 87% 2.0 mph SW3.2 kmh SW 9.0 mph14.5 kmh 29.93 in1013.5 mb 0.00 in0.0 mm 0.00 in0.0 mm 0.00 in0.0 mm
01:54 AM 44.9°F7.2°C 41.3°F5.2°C 87% 3.0 mph W4.8 kmh W 9.0 mph14.5 kmh 29.93 in1013.5 mb 0.00 in0.0 mm 0.00 in0.0 mm 0.00 in0.0 mm
01:56 AM 44.8°F7.1°C 41.2°F5.1°C 87% 4.0 mph SW6.4 kmh SW 9.0 mph14.5 kmh 29.93 in1013.5 mb 0.00 in0.0 mm 0.00 in0.0 mm 0.00 in0.0 mm
01:58 AM 44.7°F7.1°C 41.1°F5.1°C 87% 2.0 mph WSW3.2 kmh WSW 9.0 mph14.5 kmh 29.93 in1013.5 mb 0.00 in0.0 mm 0.00 in0.0 mm 0.00 in0.0 mm
02:00 AM 44.5°F6.9°C 40.9°F4.9°C 87% 2.0 mph WNW3.2 kmh WNW 9.0 mph14.5 kmh 29.93 in1013.5 mb 0.00 in0.0 mm 0.00 in0.0 mm 0.00 in0.0 mm
02:02 AM 44.5°F6.9°C 40.9°F4.9°C 87% 2.0 mph W3.2 kmh W 9.0 mph14.5 kmh 29.93 in1013.5 mb 0.00 in0.0 mm 0.00 in0.0 mm 0.00 in0.0 mm
02:04 AM 44.3°F6.8°C 40.7°F4.8°C 87% 5.0 mph WSW8.0 kmh WSW 9.0 mph14.5 kmh 29.93 in1013.5 mb 0.00 in0.0 mm 0.00 in0.0 mm 0.00 in0.0 mm
02:06 AM 44.2°F6.8°C 40.6°F4.8°C 87% 2.0 mph W3.2 kmh W 6.0 mph9.7 kmh 29.93 in1013.5 mb 0.00 in0.0 mm 0.00 in0.0 mm 0.00 in0.0 mm
02:08 AM 44.2°F6.8°C 40.6°F4.8°C 87% 2.0 mph WSW3.2 kmh WSW 6.0 mph9.7 kmh 29.93 in1013.5 mb 0.00 in0.0 mm 0.00 in0.0 mm 0.00 in0.0 mm
02:10 AM 44.1°F6.7°C 40.2°F4.6°C 86% 4.0 mph SSW6.4 kmh SSW 11.0 mph17.7 kmh 29.93 in1013.5 mb 0.00 in0.0 mm 0.00 in0.0 mm 0.00 in0.0 mm
02:12 AM 44.0°F6.7°C 40.1°F4.5°C 86% 1.0 mph W1.6 kmh W 11.0 mph17.7 kmh 29.93 in1013.5 mb 0.00 in0.0 mm 0.00 in0.0 mm 0.00 in0.0 mm
02:14 AM 44.0°F6.7°C 40.1°F4.5°C 86% 1.0 mph W1.6 kmh W 11.0 mph17.7 kmh 29.93 in1013.5 mb 0.00 in0.0 mm 0.00 in0.0 mm 0.00 in0.0 mm
02:16 AM 43.9°F6.6°C 40.0°F4.4°C 86% 2.0 mph WSW3.2 kmh WSW 11.0 mph17.7 kmh 29.93 in1013.5 mb 0.00 in0.0 mm 0.00 in0.0 mm 0.00 in0.0 mm
02:18 AM 43.8°F6.6°C 39.9°F4.4°C 86% 2.0 mph W3.2 kmh W 11.0 mph17.7 kmh 29.93 in1013.5 mb 0.00 in0.0 mm 0.00 in0.0 mm 0.00 in0.0 mm
02:20 AM 43.7°F6.5°C 39.8°F4.3°C 86% 2.0 mph W3.2 kmh W 11.0 mph17.7 kmh 29.93 in1013.5 mb 0.00 in0.0 mm 0.00 in0.0 mm 0.00 in0.0 mm
02:22 AM 43.6°F6.4°C 39.7°F4.3°C 86% 4.0 mph W6.4 kmh W 11.0 mph17.7 kmh 29.93 in1013.5 mb 0.00 in0.0 mm 0.00 in0.0 mm 0.00 in0.0 mm
02:24 AM 43.5°F6.4°C 39.6°F4.2°C 86% 2.0 mph W3.2 kmh W 11.0 mph17.7 kmh 29.93 in1013.5 mb 0.00 in0.0 mm 0.00 in0.0 mm 0.00 in0.0 mm
02:26 AM 43.4°F6.3°C 39.5°F4.2°C 86% 3.0 mph W4.8 kmh W 11.0 mph17.7 kmh 29.93 in1013.5 mb 0.00 in0.0 mm 0.00 in0.0 mm 0.00 in0.0 mm
02:28 AM 43.3°F6.3°C 39.4°F4.1°C 86% 2.0 mph WSW3.2 kmh WSW 11.0 mph17.7 kmh 29.93 in1013.5 mb 0.00 in0.0 mm 0.00 in0.0 mm 0.00 in0.0 mm
02:30 AM 43.2°F6.2°C 39.3°F4.1°C 86% 1.0 mph W1.6 kmh W 7.0 mph11.3 kmh 29.93 in1013.5 mb 0.00 in0.0 mm 0.00 in0.0 mm 0.00 in0.0 mm
02:32 AM 43.2°F6.2°C 39.3°F4.1°C 86% 2.0 mph W3.2 kmh W 7.0 mph11.3 kmh 29.93 in1013.5 mb 0.00 in0.0 mm 0.00 in0.0 mm 0.00 in0.0 mm
02:34 AM 43.1°F6.2°C 39.2°F4.0°C 86% 6.0 mph W9.7 kmh W 10.0 mph16.1 kmh 29.93 in1013.5 mb 0.00 in0.0 mm 0.00 in0.0 mm 0.00 in0.0 mm
02:36 AM 43.1°F6.2°C 39.5°F4.2°C 87% 4.0 mph S6.4 kmh S 10.0 mph16.1 kmh 29.93 in1013.5 mb 0.00 in0.0 mm 0.00 in0.0 mm 0.00 in0.0 mm
02:38 AM 43.1°F6.2°C 39.5°F4.2°C 87% 2.0 mph WNW3.2 kmh WNW 10.0 mph16.1 kmh 29.93 in1013.5 mb 0.00 in0.0 mm 0.00 in0.0 mm 0.00 in0.0 mm
02:40 AM 43.1°F6.2°C 39.5°F4.2°C 87% 2.0 mph S3.2 kmh S 10.0 mph16.1 kmh 29.93 in1013.5 mb 0.00 in0.0 mm 0.00 in0.0 mm 0.00 in0.0 mm
02:42 AM 43.1°F6.2°C 39.5°F4.2°C 87% 3.0 mph W4.8 kmh W 10.0 mph16.1 kmh 29.93 in1013.5 mb 0.00 in0.0 mm 0.00 in0.0 mm 0.00 in0.0 mm
02:44 AM 43.0°F6.1°C 39.4°F4.1°C 87% 2.0 mph W3.2 kmh W 10.0 mph16.1 kmh 29.93 in1013.5 mb 0.00 in0.0 mm 0.00 in0.0 mm 0.00 in0.0 mm
02:46 AM 43.0°F6.1°C 39.4°F4.1°C 87% 1.0 mph WSW1.6 kmh WSW 10.0 mph16.1 kmh 29.93 in1013.5 mb 0.00 in0.0 mm 0.00 in0.0 mm 0.00 in0.0 mm
02:48 AM 43.0°F6.1°C 39.4°F4.1°C 87% 1.0 mph SW1.6 kmh SW 10.0 mph16.1 kmh 29.93 in1013.5 mb 0.00 in0.0 mm 0.00 in0.0 mm 0.00 in0.0 mm
02:50 AM 42.9°F6.1°C 39.3°F4.1°C 87% 2.0 mph SW3.2 kmh SW 10.0 mph16.1 kmh 29.93 in1013.5 mb 0.00 in0.0 mm 0.00 in0.0 mm 0.00 in0.0 mm
02:52 AM 42.9°F6.1°C 39.3°F4.1°C 87% 1.0 mph W1.6 kmh W 10.0 mph16.1 kmh 29.93 in1013.5 mb 0.00 in0.0 mm 0.00 in0.0 mm 0.00 in0.0 mm
02:54 AM 42.8°F6.0°C 38.9°F3.8°C 86% 2.0 mph W3.2 kmh W 10.0 mph16.1 kmh 29.93 in1013.5 mb 0.00 in0.0 mm 0.00 in0.0 mm 0.00 in0.0 mm
02:56 AM 42.7°F5.9°C 39.1°F3.9°C 87% 1.0 mph WSW1.6 kmh WSW 10.0 mph16.1 kmh 29.93 in1013.5 mb 0.00 in0.0 mm 0.00 in0.0 mm 0.00 in0.0 mm
02:58 AM 42.6°F5.9°C 39.0°F3.9°C 87% 1.0 mph WNW1.6 kmh WNW 10.0 mph16.1 kmh 29.93 in1013.5 mb 0.00 in0.0 mm 0.00 in0.0 mm 0.00 in0.0 mm
03:00 AM 42.5°F5.8°C 38.9°F3.8°C 87% 3.0 mph SSW4.8 kmh SSW 10.0 mph16.1 kmh 29.93 in1013.5 mb 0.00 in0.0 mm 0.00 in0.0 mm 0.00 in0.0 mm
03:02 AM 42.4°F5.8°C 38.8°F3.8°C 87% 3.0 mph WSW4.8 kmh WSW 10.0 mph16.1 kmh 29.93 in1013.5 mb 0.00 in0.0 mm 0.00 in0.0 mm 0.00 in0.0 mm
03:04 AM 42.3°F5.7°C 38.7°F3.7°C 87% 4.0 mph SW6.4 kmh SW 10.0 mph16.1 kmh 29.93 in1013.5 mb 0.00 in0.0 mm 0.00 in0.0 mm 0.00 in0.0 mm
03:06 AM 42.3°F5.7°C 38.7°F3.7°C 87% 2.0 mph WSW3.2 kmh WSW 7.0 mph11.3 kmh 29.93 in1013.5 mb 0.00 in0.0 mm 0.00 in0.0 mm 0.00 in0.0 mm
03:08 AM 42.2°F5.7°C 38.6°F3.7°C 87% 6.0 mph W9.7 kmh W 7.0 mph11.3 kmh 29.93 in1013.5 mb 0.00 in0.0 mm 0.00 in0.0 mm 0.00 in0.0 mm
03:10 AM 42.1°F5.6°C 38.5°F3.6°C 87% 3.0 mph SW4.8 kmh SW 7.0 mph11.3 kmh 29.93 in1013.5 mb 0.00 in0.0 mm 0.00 in0.0 mm 0.00 in0.0 mm
03:12 AM 42.2°F5.7°C 38.9°F3.8°C 88% 5.0 mph WSW8.0 kmh WSW 7.0 mph11.3 kmh 29.93 in1013.5 mb 0.00 in0.0 mm 0.00 in0.0 mm 0.00 in0.0 mm
03:14 AM 42.2°F5.7°C 38.9°F3.8°C 88% 2.0 mph WSW3.2 kmh WSW 7.0 mph11.3 kmh 29.93 in1013.5 mb 0.00 in0.0 mm 0.00 in0.0 mm 0.00 in0.0 mm
03:16 AM 42.2°F5.7°C 38.9°F3.8°C 88% 3.0 mph W4.8 kmh W 7.0 mph11.3 kmh 29.93 in1013.5 mb 0.00 in0.0 mm 0.00 in0.0 mm 0.00 in0.0 mm
03:18 AM 42.3°F5.7°C 39.0°F3.9°C 88% 2.0 mph SW3.2 kmh SW 9.0 mph14.5 kmh 29.93 in1013.5 mb 0.00 in0.0 mm 0.00 in0.0 mm 0.00 in0.0 mm
03:20 AM 42.3°F5.7°C 39.0°F3.9°C 88% 2.0 mph WSW3.2 kmh WSW 9.0 mph14.5 kmh 29.93 in1013.5 mb 0.00 in0.0 mm 0.00 in0.0 mm 0.00 in0.0 mm
03:22 AM 42.3°F5.7°C 39.0°F3.9°C 88% 1.0 mph W1.6 kmh W 9.0 mph14.5 kmh 29.93 in1013.5 mb 0.00 in0.0 mm 0.00 in0.0 mm 0.00 in0.0 mm
03:24 AM 42.3°F5.7°C 39.0°F3.9°C 88% 1.0 mph W1.6 kmh W 9.0 mph14.5 kmh 29.93 in1013.5 mb 0.00 in0.0 mm 0.00 in0.0 mm 0.00 in0.0 mm
03:26 AM 42.3°F5.7°C 39.0°F3.9°C 88% 2.0 mph WSW3.2 kmh WSW 9.0 mph14.5 kmh 29.93 in1013.5 mb 0.00 in0.0 mm 0.00 in0.0 mm 0.00 in0.0 mm
03:28 AM 42.2°F5.7°C 38.9°F3.8°C 88% 2.0 mph SSW3.2 kmh SSW 9.0 mph14.5 kmh 29.93 in1013.5 mb 0.00 in0.0 mm 0.00 in0.0 mm 0.00 in0.0 mm
03:30 AM 42.2°F5.7°C 38.9°F3.8°C 88% 2.0 mph SW3.2 kmh SW 9.0 mph14.5 kmh 29.93 in1013.5 mb 0.00 in0.0 mm 0.00 in0.0 mm 0.00 in0.0 mm
03:32 AM 42.2°F5.7°C 38.9°F3.8°C 88% 3.0 mph WSW4.8 kmh WSW 9.0 mph14.5 kmh 29.93 in1013.5 mb 0.00 in0.0 mm 0.00 in0.0 mm 0.00 in0.0 mm
03:34 AM 42.2°F5.7°C 38.9°F3.8°C 88% 2.0 mph WSW3.2 kmh WSW 9.0 mph14.5 kmh 29.93 in1013.5 mb 0.00 in0.0 mm 0.00 in0.0 mm 0.00 in0.0 mm
03:36 AM 42.3°F5.7°C 39.0°F3.9°C 88% 3.0 mph W4.8 kmh W 11.0 mph17.7 kmh 29.93 in1013.5 mb 0.00 in0.0 mm 0.00 in0.0 mm 0.00 in0.0 mm
03:38 AM 42.3°F5.7°C 39.3°F4.1°C 89% 3.0 mph W4.8 kmh W 11.0 mph17.7 kmh 29.93 in1013.5 mb 0.00 in0.0 mm 0.00 in0.0 mm 0.00 in0.0 mm
03:40 AM 42.3°F5.7°C 39.3°F4.1°C 89% 3.0 mph WSW4.8 kmh WSW 11.0 mph17.7 kmh 29.93 in1013.5 mb 0.00 in0.0 mm 0.00 in0.0 mm 0.00 in0.0 mm
03:42 AM 42.4°F5.8°C 39.4°F4.1°C 89% 2.0 mph WSW3.2 kmh WSW 11.0 mph17.7 kmh 29.93 in1013.5 mb 0.00 in0.0 mm 0.00 in0.0 mm 0.00 in0.0 mm
03:44 AM 42.4°F5.8°C 39.4°F4.1°C 89% 2.0 mph W3.2 kmh W 11.0 mph17.7 kmh 29.93 in1013.5 mb 0.00 in0.0 mm 0.00 in0.0 mm 0.00 in0.0 mm
03:46 AM 42.4°F5.8°C 39.4°F4.1°C 89% 1.0 mph WSW1.6 kmh WSW 11.0 mph17.7 kmh 29.93 in1013.5 mb 0.00 in0.0 mm 0.00 in0.0 mm 0.00 in0.0 mm
03:48 AM 42.4°F5.8°C 39.1°F3.9°C 88% 5.0 mph NW8.0 kmh NW 11.0 mph17.7 kmh 29.93 in1013.5 mb 0.00 in0.0 mm 0.00 in0.0 mm 0.00 in0.0 mm
03:50 AM 42.3°F5.7°C 39.0°F3.9°C 88% 1.0 mph W1.6 kmh W 11.0 mph17.7 kmh 29.93 in1013.5 mb 0.00 in0.0 mm 0.00 in0.0 mm 0.00 in0.0 mm
03:52 AM 42.3°F5.7°C 39.0°F3.9°C 88% 2.0 mph WSW3.2 kmh WSW 11.0 mph17.7 kmh 29.93 in1013.5 mb 0.00 in0.0 mm 0.00 in0.0 mm 0.00 in0.0 mm
03:54 AM 42.2°F5.7°C 38.9°F3.8°C 88% 2.0 mph W3.2 kmh W 11.0 mph17.7 kmh 29.93 in1013.5 mb 0.00 in0.0 mm 0.00 in0.0 mm 0.00 in0.0 mm
03:56 AM 42.2°F5.7°C 38.9°F3.8°C 88% 3.0 mph W4.8 kmh W 7.0 mph11.3 kmh 29.93 in1013.5 mb 0.00 in0.0 mm 0.00 in0.0 mm 0.00 in0.0 mm
03:58 AM 42.1°F5.6°C 38.8°F3.8°C 88% 4.0 mph WSW6.4 kmh WSW 7.0 mph11.3 kmh 29.93 in1013.5 mb 0.00 in0.0 mm 0.00 in0.0 mm 0.00 in0.0 mm
04:00 AM 42.1°F5.6°C 39.1°F3.9°C 89% 1.0 mph W1.6 kmh W 8.0 mph12.9 kmh 29.93 in1013.5 mb 0.00 in0.0 mm 0.00 in0.0 mm 0.00 in0.0 mm
04:02 AM 42.1°F5.6°C 39.1°F3.9°C 89% 2.0 mph WSW3.2 kmh WSW 8.0 mph12.9 kmh 29.93 in1013.5 mb 0.00 in0.0 mm 0.00 in0.0 mm 0.00 in0.0 mm
04:04 AM 42.1°F5.6°C 39.1°F3.9°C 89% 6.0 mph WSW9.7 kmh WSW 8.0 mph12.9 kmh 29.93 in1013.5 mb 0.00 in0.0 mm 0.00 in0.0 mm 0.00 in0.0 mm
04:06 AM 42.1°F5.6°C 39.1°F3.9°C 89% 4.0 mph SW6.4 kmh SW 8.0 mph12.9 kmh 29.93 in1013.5 mb 0.00 in0.0 mm 0.00 in0.0 mm 0.00 in0.0 mm
04:08 AM 42.2°F5.7°C 39.2°F4.0°C 89% 3.0 mph WSW4.8 kmh WSW 8.0 mph12.9 kmh 29.93 in1013.5 mb 0.00 in0.0 mm 0.00 in0.0 mm 0.00 in0.0 mm
04:10 AM 42.2°F5.7°C 39.2°F4.0°C 89% 3.0 mph WSW4.8 kmh WSW 9.0 mph14.5 kmh 29.93 in1013.5 mb 0.00 in0.0 mm 0.00 in0.0 mm 0.00 in0.0 mm
04:12 AM 42.3°F5.7°C 39.3°F4.1°C 89% 2.0 mph W3.2 kmh W 11.0 mph17.7 kmh 29.93 in1013.5 mb 0.00 in0.0 mm 0.00 in0.0 mm 0.00 in0.0 mm
04:14 AM 42.3°F5.7°C 39.3°F4.1°C 89% 2.0 mph WSW3.2 kmh WSW 11.0 mph17.7 kmh 29.93 in1013.5 mb 0.00 in0.0 mm 0.00 in0.0 mm 0.00 in0.0 mm
04:16 AM 42.4°F5.8°C 39.4°F4.1°C 89% 3.0 mph WNW4.8 kmh WNW 11.0 mph17.7 kmh 29.93 in1013.5 mb 0.00 in0.0 mm 0.00 in0.0 mm 0.00 in0.0 mm
04:18 AM 42.4°F5.8°C 39.4°F4.1°C 89% 1.0 mph W1.6 kmh W 11.0 mph17.7 kmh 29.93 in1013.5 mb 0.00 in0.0 mm 0.00 in0.0 mm 0.00 in0.0 mm
04:20 AM 42.5°F5.8°C 39.5°F4.2°C 89% 1.0 mph WNW1.6 kmh WNW 11.0 mph17.7 kmh 29.93 in1013.5 mb 0.00 in0.0 mm 0.00 in0.0 mm 0.00 in0.0 mm
04:22 AM 42.5°F5.8°C 39.5°F4.2°C 89% 3.0 mph W4.8 kmh W 11.0 mph17.7 kmh 29.93 in1013.5 mb 0.00 in0.0 mm 0.00 in0.0 mm 0.00 in0.0 mm
04:24 AM 42.5°F5.8°C 39.5°F4.2°C 89% 8.0 mph W12.9 kmh W 11.0 mph17.7 kmh 29.93 in1013.5 mb 0.00 in0.0 mm 0.00 in0.0 mm 0.00 in0.0 mm
04:26 AM 42.6°F5.9°C 39.6°F4.2°C 89% 3.0 mph WSW4.8 kmh WSW 11.0 mph17.7 kmh 29.93 in1013.5 mb 0.00 in0.0 mm 0.00 in0.0 mm 0.00 in0.0 mm
04:28 AM 42.7°F5.9°C 39.4°F4.1°C 88% 3.0 mph S4.8 kmh S 11.0 mph17.7 kmh 29.93 in1013.5 mb 0.00 in0.0 mm 0.00 in0.0 mm 0.00 in0.0 mm
04:30 AM 42.7°F5.9°C 39.4°F4.1°C 88% 3.0 mph WSW4.8 kmh WSW 11.0 mph17.7 kmh 29.93 in1013.5 mb 0.00 in0.0 mm 0.00 in0.0 mm 0.01 in0.3 mm
04:32 AM 42.8°F6.0°C 39.5°F4.2°C 88% 2.0 mph WSW3.2 kmh WSW 11.0 mph17.7 kmh 29.94 in1013.9 mb 0.00 in0.0 mm 0.00 in0.0 mm 0.01 in0.3 mm
04:34 AM 42.8°F6.0°C 39.5°F4.2°C 88% 2.0 mph WNW3.2 kmh WNW 11.0 mph17.7 kmh 29.94 in1013.9 mb 0.00 in0.0 mm 0.00 in0.0 mm 0.01 in0.3 mm
04:36 AM 42.9°F6.1°C 39.3°F4.1°C 87% 4.0 mph W6.4 kmh W 11.0 mph17.7 kmh 29.94 in1013.9 mb 0.00 in0.0 mm 0.00 in0.0 mm 0.01 in0.3 mm
04:38 AM 42.9°F6.1°C 39.3°F4.1°C 87% 3.0 mph W4.8 kmh W 11.0 mph17.7 kmh 29.94 in1013.9 mb 0.00 in0.0 mm 0.00 in0.0 mm 0.01 in0.3 mm
04:40 AM 42.9°F6.1°C 39.3°F4.1°C 87% 3.0 mph W4.8 kmh W 11.0 mph17.7 kmh 29.94 in1013.9 mb 0.00 in0.0 mm 0.00 in0.0 mm 0.01 in0.3 mm
04:42 AM 42.9°F6.1°C 39.3°F4.1°C 87% 5.0 mph NW8.0 kmh NW 11.0 mph17.7 kmh 29.94 in1013.9 mb 0.00 in0.0 mm 0.00 in0.0 mm 0.01 in0.3 mm
04:44 AM 43.0°F6.1°C 39.4°F4.1°C 87% 3.0 mph WSW4.8 kmh WSW 11.0 mph17.7 kmh 29.94 in1013.9 mb 0.00 in0.0 mm 0.00 in0.0 mm 0.01 in0.3 mm
04:46 AM 43.1°F6.2°C 39.2°F4.0°C 86% 7.0 mph WNW11.3 kmh WNW 11.0 mph17.7 kmh 29.94 in1013.9 mb 0.00 in0.0 mm 0.00 in0.0 mm 0.01 in0.3 mm
04:48 AM 43.1°F6.2°C 39.2°F4.0°C 86% 7.0 mph WNW11.3 kmh WNW 11.0 mph17.7 kmh 29.94 in1013.9 mb 0.00 in0.0 mm 0.00 in0.0 mm 0.01 in0.3 mm
04:50 AM 43.1°F6.2°C 38.9°F3.8°C 85% 7.0 mph NW11.3 kmh NW 11.0 mph17.7 kmh 29.94 in1013.9 mb 0.00 in0.0 mm 0.00 in0.0 mm 0.01 in0.3 mm
04:52 AM 43.1°F6.2°C 38.9°F3.8°C 85% 5.0 mph SW8.0 kmh SW 14.0 mph22.5 kmh 29.95 in1014.2 mb 0.00 in0.0 mm 0.00 in0.0 mm 0.01 in0.3 mm
04:54 AM 43.1°F6.2°C 38.6°F3.7°C 84% 5.0 mph NW8.0 kmh NW 14.0 mph22.5 kmh 29.94 in1013.9 mb 0.00 in0.0 mm 0.00 in0.0 mm 0.01 in0.3 mm
04:56 AM 43.1°F6.2°C 38.6°F3.7°C 84% 3.0 mph NW4.8 kmh NW 14.0 mph22.5 kmh 29.94 in1013.9 mb 0.00 in0.0 mm 0.00 in0.0 mm 0.01 in0.3 mm
04:58 AM 43.2°F6.2°C 38.7°F3.7°C 84% 3.0 mph SSE4.8 kmh SSE 14.0 mph22.5 kmh 29.94 in1013.9 mb 0.00 in0.0 mm 0.00 in0.0 mm 0.01 in0.3 mm
05:00 AM 43.1°F6.2°C 38.3°F3.5°C 83% 4.0 mph WSW6.4 kmh WSW 15.0 mph24.1 kmh 29.95 in1014.2 mb 0.00 in0.0 mm 0.00 in0.0 mm 0.01 in0.3 mm
05:02 AM 43.1°F6.2°C 38.3°F3.5°C 83% 4.0 mph W6.4 kmh W 15.0 mph24.1 kmh 29.95 in1014.2 mb 0.00 in0.0 mm 0.00 in0.0 mm 0.01 in0.3 mm
05:04 AM 43.1°F6.2°C 38.3°F3.5°C 83% 2.0 mph WNW3.2 kmh WNW 15.0 mph24.1 kmh 29.95 in1014.2 mb 0.00 in0.0 mm 0.00 in0.0 mm 0.01 in0.3 mm
05:06 AM 43.1°F6.2°C 38.0°F3.3°C 82% 6.0 mph WSW9.7 kmh WSW 19.0 mph30.6 kmh 29.95 in1014.2 mb 0.00 in0.0 mm 0.00 in0.0 mm 0.01 in0.3 mm
05:08 AM 43.2°F6.2°C 37.8°F3.2°C 81% 13.0 mph SW20.9 kmh SW 19.0 mph30.6 kmh 29.95 in1014.2 mb 0.00 in0.0 mm 0.00 in0.0 mm 0.01 in0.3 mm
05:10 AM 43.2°F6.2°C 37.5°F3.1°C 80% 4.0 mph WNW6.4 kmh WNW 19.0 mph30.6 kmh 29.95 in1014.2 mb 0.00 in0.0 mm 0.00 in0.0 mm 0.01 in0.3 mm
05:12 AM 43.2°F6.2°C 37.8°F3.2°C 81% 4.0 mph NW6.4 kmh NW 19.0 mph30.6 kmh 29.95 in1014.2 mb 0.00 in0.0 mm 0.00 in0.0 mm 0.01 in0.3 mm
05:14 AM 43.2°F6.2°C 37.1°F2.8°C 79% 4.0 mph WNW6.4 kmh WNW 20.0 mph32.2 kmh 29.95 in1014.2 mb 0.00 in0.0 mm 0.00 in0.0 mm 0.01 in0.3 mm
05:16 AM 43.2°F6.2°C 37.1°F2.8°C 79% 7.0 mph WNW11.3 kmh WNW 20.0 mph32.2 kmh 29.95 in1014.2 mb 0.00 in0.0 mm 0.00 in0.0 mm 0.01 in0.3 mm
05:18 AM 43.2°F6.2°C 36.8°F2.7°C 78% 3.0 mph WNW4.8 kmh WNW 20.0 mph32.2 kmh 29.95 in1014.2 mb 0.00 in0.0 mm 0.00 in0.0 mm 0.01 in0.3 mm
05:20 AM 43.2°F6.2°C 37.1°F2.8°C 79% 6.0 mph W9.7 kmh W 20.0 mph32.2 kmh 29.95 in1014.2 mb 0.00 in0.0 mm 0.00 in0.0 mm 0.01 in0.3 mm
05:22 AM 43.2°F6.2°C 36.8°F2.7°C 78% 7.0 mph WNW11.3 kmh WNW 20.0 mph32.2 kmh 29.95 in1014.2 mb 0.00 in0.0 mm 0.00 in0.0 mm 0.01 in0.3 mm
05:24 AM 43.1°F6.2°C 36.7°F2.6°C 78% 5.0 mph NW8.0 kmh NW 20.0 mph32.2 kmh 29.96 in1014.6 mb 0.00 in0.0 mm 0.00 in0.0 mm 0.01 in0.3 mm
05:26 AM 43.1°F6.2°C 36.7°F2.6°C 78% 3.0 mph NW4.8 kmh NW 20.0 mph32.2 kmh 29.96 in1014.6 mb 0.00 in0.0 mm 0.00 in0.0 mm 0.01 in0.3 mm
05:28 AM 43.1°F6.2°C 36.7°F2.6°C 78% 6.0 mph WSW9.7 kmh WSW 20.0 mph32.2 kmh 29.96 in1014.6 mb 0.00 in0.0 mm 0.00 in0.0 mm 0.01 in0.3 mm
05:30 AM 43.1°F6.2°C 37.0°F2.8°C 79% 4.0 mph NW6.4 kmh NW 20.0 mph32.2 kmh 29.96 in1014.6 mb 0.00 in0.0 mm 0.00 in0.0 mm 0.01 in0.3 mm
05:32 AM 43.0°F6.1°C 36.9°F2.7°C 79% 3.0 mph NW4.8 kmh NW 20.0 mph32.2 kmh 29.96 in1014.6 mb 0.00 in0.0 mm 0.00 in0.0 mm 0.01 in0.3 mm
05:34 AM 42.9°F6.1°C 37.2°F2.9°C 80% 2.0 mph W3.2 kmh W 9.0 mph14.5 kmh 29.96 in1014.6 mb 0.00 in0.0 mm 0.00 in0.0 mm 0.01 in0.3 mm
05:36 AM 42.7°F5.9°C 36.6°F2.6°C 79% 4.0 mph W6.4 kmh W 15.0 mph24.1 kmh 29.97 in1014.9 mb 0.00 in0.0 mm 0.00 in0.0 mm 0.01 in0.3 mm
05:38 AM 42.6°F5.9°C 36.6°F2.6°C 79% 2.0 mph NW3.2 kmh NW 15.0 mph24.1 kmh 29.97 in1014.9 mb 0.00 in0.0 mm 0.00 in0.0 mm 0.01 in0.3 mm
05:40 AM 42.4°F5.8°C 35.7°F2.1°C 77% 7.0 mph WNW11.3 kmh WNW 15.0 mph24.1 kmh 29.97 in1014.9 mb 0.00 in0.0 mm 0.00 in0.0 mm 0.01 in0.3 mm
05:42 AM 42.2°F5.7°C 35.2°F1.8°C 76% 6.0 mph WNW9.7 kmh WNW 15.0 mph24.1 kmh 29.97 in1014.9 mb 0.00 in0.0 mm 0.00 in0.0 mm 0.01 in0.3 mm
05:44 AM 42.1°F5.6°C 35.4°F1.9°C 77% 4.0 mph WNW6.4 kmh WNW 15.0 mph24.1 kmh 29.97 in1014.9 mb 0.00 in0.0 mm 0.00 in0.0 mm 0.01 in0.3 mm
05:46 AM 41.9°F5.5°C 34.9°F1.6°C 76% 3.0 mph W4.8 kmh W 15.0 mph24.1 kmh 29.97 in1014.9 mb 0.00 in0.0 mm 0.00 in0.0 mm 0.01 in0.3 mm
05:48 AM 41.8°F5.4°C 35.1°F1.7°C 77% 4.0 mph W6.4 kmh W 15.0 mph24.1 kmh 29.97 in1014.9 mb 0.00 in0.0 mm 0.00 in0.0 mm 0.01 in0.3 mm
05:50 AM 41.7°F5.4°C 35.0°F1.7°C 77% 9.0 mph NW14.5 kmh NW 15.0 mph24.1 kmh 29.97 in1014.9 mb 0.00 in0.0 mm 0.00 in0.0 mm 0.01 in0.3 mm
05:52 AM 41.5°F5.3°C 34.8°F1.6°C 77% 5.0 mph SW8.0 kmh SW 15.0 mph24.1 kmh 29.98 in1015.2 mb 0.00 in0.0 mm 0.00 in0.0 mm 0.01 in0.3 mm
05:54 AM 41.4°F5.2°C 34.4°F1.3°C 76% 6.0 mph NW9.7 kmh NW 15.0 mph24.1 kmh 29.98 in1015.2 mb 0.00 in0.0 mm 0.00 in0.0 mm 0.01 in0.3 mm
05:56 AM 41.3°F5.2°C 34.3°F1.3°C 76% 2.0 mph W3.2 kmh W 13.0 mph20.9 kmh 29.98 in1015.2 mb 0.00 in0.0 mm 0.00 in0.0 mm 0.01 in0.3 mm
05:58 AM 41.1°F5.1°C 34.4°F1.3°C 77% 4.0 mph NW6.4 kmh NW 13.0 mph20.9 kmh 29.98 in1015.2 mb 0.00 in0.0 mm 0.00 in0.0 mm 0.01 in0.3 mm
06:00 AM 41.0°F5.0°C 34.4°F1.3°C 77% 9.0 mph W14.5 kmh W 13.0 mph20.9 kmh 29.98 in1015.2 mb 0.00 in0.0 mm 0.00 in0.0 mm 0.01 in0.3 mm
06:02 AM 40.9°F4.9°C 34.3°F1.3°C 77% 7.0 mph W11.3 kmh W 13.0 mph20.9 kmh 29.99 in1015.6 mb 0.00 in0.0 mm 0.00 in0.0 mm 0.01 in0.3 mm
06:04 AM 40.7°F4.8°C 34.1°F1.2°C 77% 8.0 mph NW12.9 kmh NW 13.0 mph20.9 kmh 29.99 in1015.6 mb 0.00 in0.0 mm 0.00 in0.0 mm 0.01 in0.3 mm
06:06 AM 40.5°F4.7°C 33.9°F1.1°C 77% 5.0 mph NW8.0 kmh NW 11.0 mph17.7 kmh 29.99 in1015.6 mb 0.00 in0.0 mm 0.00 in0.0 mm 0.01 in0.3 mm
06:08 AM 40.4°F4.7°C 34.1°F1.2°C 78% 3.0 mph WNW4.8 kmh WNW 11.0 mph17.7 kmh 30.00 in1015.9 mb 0.00 in0.0 mm 0.00 in0.0 mm 0.01 in0.3 mm
06:10 AM 40.2°F4.6°C 33.6°F0.9°C 77% 4.0 mph W6.4 kmh W 11.0 mph17.7 kmh 30.00 in1015.9 mb 0.00 in0.0 mm 0.00 in0.0 mm 0.01 in0.3 mm
06:12 AM 40.1°F4.5°C 33.5°F0.8°C 77% 3.0 mph NW4.8 kmh NW 11.0 mph17.7 kmh 30.00 in1015.9 mb 0.00 in0.0 mm 0.00 in0.0 mm 0.01 in0.3 mm
06:14 AM 39.9°F4.4°C 33.0°F0.6°C 76% 3.0 mph NW4.8 kmh NW 11.0 mph17.7 kmh 30.00 in1015.9 mb 0.00 in0.0 mm 0.00 in0.0 mm 0.01 in0.3 mm
06:16 AM 39.8°F4.3°C 33.2°F0.7°C 77% 4.0 mph WNW6.4 kmh WNW 10.0 mph16.1 kmh 30.00 in1015.9 mb 0.00 in0.0 mm 0.00 in0.0 mm 0.01 in0.3 mm
06:18 AM 39.7°F4.3°C 33.1°F0.6°C 77% 4.0 mph NW6.4 kmh NW 10.0 mph16.1 kmh 30.00 in1015.9 mb 0.00 in0.0 mm 0.00 in0.0 mm 0.01 in0.3 mm
06:20 AM 39.6°F4.2°C 33.0°F0.6°C 77% 5.0 mph NW8.0 kmh NW 10.0 mph16.1 kmh 30.00 in1015.9 mb 0.00 in0.0 mm 0.00 in0.0 mm 0.01 in0.3 mm
06:22 AM 39.5°F4.2°C 32.9°F0.5°C 77% 5.0 mph WNW8.0 kmh WNW 10.0 mph16.1 kmh 30.00 in1015.9 mb 0.00 in0.0 mm 0.00 in0.0 mm 0.01 in0.3 mm
06:24 AM 39.3°F4.1°C 32.7°F0.4°C 77% 3.0 mph WNW4.8 kmh WNW 10.0 mph16.1 kmh 30.00 in1015.9 mb 0.00 in0.0 mm 0.00 in0.0 mm 0.01 in0.3 mm
06:26 AM 39.2°F4.0°C 32.6°F0.3°C 77% 7.0 mph NW11.3 kmh NW 17.0 mph27.4 kmh 30.00 in1015.9 mb 0.00 in0.0 mm 0.00 in0.0 mm 0.01 in0.3 mm
06:28 AM 39.1°F3.9°C 32.5°F0.3°C 77% 5.0 mph NW8.0 kmh NW 17.0 mph27.4 kmh 30.01 in1016.3 mb 0.00 in0.0 mm 0.00 in0.0 mm 0.01 in0.3 mm
06:30 AM 39.0°F3.9°C 32.4°F0.2°C 77% 5.0 mph NW8.0 kmh NW 17.0 mph27.4 kmh 30.01 in1016.3 mb 0.00 in0.0 mm 0.00 in0.0 mm 0.01 in0.3 mm
06:32 AM 38.9°F3.8°C 32.6°F0.3°C 78% 3.0 mph WNW4.8 kmh WNW 17.0 mph27.4 kmh 30.01 in1016.3 mb 0.00 in0.0 mm 0.00 in0.0 mm 0.01 in0.3 mm
06:34 AM 38.8°F3.8°C 32.5°F0.3°C 78% 5.0 mph WNW8.0 kmh WNW 17.0 mph27.4 kmh 30.01 in1016.3 mb 0.00 in0.0 mm 0.00 in0.0 mm 0.01 in0.3 mm
06:36 AM 38.8°F3.8°C 32.5°F0.3°C 78% 8.0 mph NW12.9 kmh NW 17.0 mph27.4 kmh 30.01 in1016.3 mb 0.00 in0.0 mm 0.00 in0.0 mm 0.01 in0.3 mm
06:38 AM 38.7°F3.7°C 32.4°F0.2°C 78% 7.0 mph NW11.3 kmh NW 17.0 mph27.4 kmh 30.01 in1016.3 mb 0.00 in0.0 mm 0.00 in0.0 mm 0.01 in0.3 mm
06:40 AM 38.6°F3.7°C 32.3°F0.2°C 78% 2.0 mph WNW3.2 kmh WNW 17.0 mph27.4 kmh 30.01 in1016.3 mb 0.00 in0.0 mm 0.00 in0.0 mm 0.01 in0.3 mm
06:42 AM 38.4°F3.6°C 32.5°F0.3°C 79% 3.0 mph NNW4.8 kmh NNW 17.0 mph27.4 kmh 30.01 in1016.3 mb 0.00 in0.0 mm 0.00 in0.0 mm 0.01 in0.3 mm
06:44 AM 38.4°F3.6°C 32.5°F0.3°C 79% 4.0 mph WNW6.4 kmh WNW 17.0 mph27.4 kmh 30.01 in1016.3 mb 0.00 in0.0 mm 0.00 in0.0 mm 0.01 in0.3 mm
06:46 AM 38.3°F3.5°C 32.4°F0.2°C 79% 3.0 mph NW4.8 kmh NW 9.0 mph14.5 kmh 30.01 in1016.3 mb 0.00 in0.0 mm 0.00 in0.0 mm 0.01 in0.3 mm
06:48 AM 38.2°F3.4°C 32.3°F0.2°C 79% 2.0 mph WNW3.2 kmh WNW 9.0 mph14.5 kmh 30.01 in1016.3 mb 0.00 in0.0 mm 0.00 in0.0 mm 0.01 in0.3 mm
06:50 AM 38.2°F3.4°C 32.6°F0.3°C 80% 2.0 mph W3.2 kmh W 9.0 mph14.5 kmh 30.02 in1016.6 mb 0.00 in0.0 mm 0.00 in0.0 mm 0.01 in0.3 mm
06:52 AM 38.2°F3.4°C 32.6°F0.3°C 80% 5.0 mph NW8.0 kmh NW 9.0 mph14.5 kmh 30.02 in1016.6 mb 0.00 in0.0 mm 0.00 in0.0 mm 0.01 in0.3 mm
06:54 AM 38.1°F3.4°C 32.5°F0.3°C 80% 3.0 mph WNW4.8 kmh WNW 9.0 mph14.5 kmh 30.02 in1016.6 mb 0.00 in0.0 mm 0.00 in0.0 mm 0.01 in0.3 mm
06:56 AM 38.0°F3.3°C 32.4°F0.2°C 80% 2.0 mph W3.2 kmh W 8.0 mph12.9 kmh 30.02 in1016.6 mb 0.00 in0.0 mm 0.00 in0.0 mm 0.01 in0.3 mm
06:58 AM 37.9°F3.3°C 32.3°F0.2°C 80% 3.0 mph WNW4.8 kmh WNW 8.0 mph12.9 kmh 30.02 in1016.6 mb 0.00 in0.0 mm 0.00 in0.0 mm 0.01 in0.3 mm
07:00 AM 37.8°F3.2°C 32.2°F0.1°C 80% 4.0 mph W6.4 kmh W 8.0 mph12.9 kmh 30.02 in1016.6 mb 0.00 in0.0 mm 0.00 in0.0 mm 0.01 in0.3 mm
07:02 AM 37.8°F3.2°C 32.2°F0.1°C 80% 2.0 mph WNW3.2 kmh WNW 8.0 mph12.9 kmh 30.02 in1016.6 mb 0.00 in0.0 mm 0.00 in0.0 mm 0.01 in0.3 mm
07:04 AM 37.7°F3.2°C 32.1°F0.1°C 80% 3.0 mph NW4.8 kmh NW 8.0 mph12.9 kmh 30.02 in1016.6 mb 0.00 in0.0 mm 0.00 in0.0 mm 0.01 in0.3 mm
07:06 AM 37.7°F3.2°C 32.1°F0.1°C 80% 2.0 mph NW3.2 kmh NW 8.0 mph12.9 kmh 30.02 in1016.6 mb 0.00 in0.0 mm 0.00 in0.0 mm 0.01 in0.3 mm
07:08 AM 37.6°F3.1°C 32.0°F0.0°C 80% 2.0 mph W3.2 kmh W 8.0 mph12.9 kmh 30.02 in1016.6 mb 0.00 in0.0 mm 0.00 in0.0 mm 0.01 in0.3 mm
07:10 AM 37.5°F3.1°C 32.2°F0.1°C 81% 3.0 mph WNW4.8 kmh WNW 8.0 mph12.9 kmh 30.03 in1016.9 mb 0.00 in0.0 mm 0.00 in0.0 mm 0.01 in0.3 mm
07:12 AM 37.4°F3.0°C 31.8°F-0.1°C 80% 3.0 mph W4.8 kmh W 9.0 mph14.5 kmh 30.03 in1016.9 mb 0.00 in0.0 mm 0.00 in0.0 mm 0.01 in0.3 mm
07:14 AM 37.4°F3.0°C 32.1°F0.1°C 81% 3.0 mph WNW4.8 kmh WNW 9.0 mph14.5 kmh 30.03 in1016.9 mb 0.00 in0.0 mm 0.00 in0.0 mm 0.01 in0.3 mm
07:16 AM 37.3°F2.9°C 32.0°F0.0°C 81% 2.0 mph WNW3.2 kmh WNW 9.0 mph14.5 kmh 30.03 in1016.9 mb 0.00 in0.0 mm 0.00 in0.0 mm 0.01 in0.3 mm
07:18 AM 37.3°F2.9°C 32.0°F0.0°C 81% 3.0 mph WNW4.8 kmh WNW 9.0 mph14.5 kmh 30.03 in1016.9 mb 0.00 in0.0 mm 0.00 in0.0 mm 0.01 in0.3 mm
07:20 AM 37.3°F2.9°C 32.0°F0.0°C 81% 4.0 mph W6.4 kmh W 9.0 mph14.5 kmh 30.03 in1016.9 mb 0.00 in0.0 mm 0.00 in0.0 mm 0.01 in0.3 mm
07:22 AM 37.3°F2.9°C 32.0°F0.0°C 81% 4.0 mph NW6.4 kmh NW 9.0 mph14.5 kmh 30.03 in1016.9 mb 0.00 in0.0 mm 0.00 in0.0 mm 0.01 in0.3 mm
07:24 AM 37.2°F2.9°C 31.9°F-0.1°C 81% 2.0 mph NW3.2 kmh NW 9.0 mph14.5 kmh 30.04 in1017.3 mb 0.00 in0.0 mm 0.00 in0.0 mm 0.01 in0.3 mm
07:26 AM 37.2°F2.9°C 31.9°F-0.1°C 81% 4.0 mph W6.4 kmh W 9.0 mph14.5 kmh 30.04 in1017.3 mb 0.00 in0.0 mm 0.00 in0.0 mm 0.01 in0.3 mm
07:28 AM 37.2°F2.9°C 31.9°F-0.1°C 81% 3.0 mph WNW4.8 kmh WNW 9.0 mph14.5 kmh 30.04 in1017.3 mb 0.00 in0.0 mm 0.00 in0.0 mm 0.01 in0.3 mm
07:30 AM 37.2°F2.9°C 31.9°F-0.1°C 81% 4.0 mph WNW6.4 kmh WNW 9.0 mph14.5 kmh 30.04 in1017.3 mb 0.00 in0.0 mm 0.00 in0.0 mm 0.01 in0.3 mm
07:32 AM 37.1°F2.8°C 31.8°F-0.1°C 81% 5.0 mph NW8.0 kmh NW 7.0 mph11.3 kmh 30.04 in1017.3 mb 0.00 in0.0 mm 0.00 in0.0 mm 0.01 in0.3 mm
07:34 AM 37.1°F2.8°C 31.8°F-0.1°C 81% 2.0 mph W3.2 kmh W 7.0 mph11.3 kmh 30.04 in1017.3 mb 0.00 in0.0 mm 0.00 in0.0 mm 0.01 in0.3 mm
07:36 AM 37.1°F2.8°C 32.1°F0.1°C 82% 3.0 mph W4.8 kmh W 7.0 mph11.3 kmh 30.04 in1017.3 mb 0.00 in0.0 mm 0.00 in0.0 mm 0.01 in0.3 mm
07:38 AM 37.1°F2.8°C 32.1°F0.1°C 82% 3.0 mph W4.8 kmh W 8.0 mph12.9 kmh 30.04 in1017.3 mb 0.00 in0.0 mm 0.00 in0.0 mm 0.01 in0.3 mm
07:40 AM 37.1°F2.8°C 31.8°F-0.1°C 81% 3.0 mph W4.8 kmh W 9.0 mph14.5 kmh 30.04 in1017.3 mb 0.00 in0.0 mm 0.00 in0.0 mm 0.01 in0.3 mm
07:42 AM 37.0°F2.8°C 31.7°F-0.2°C 81% 2.0 mph NW3.2 kmh NW 9.0 mph14.5 kmh 30.04 in1017.3 mb 0.00 in0.0 mm 0.00 in0.0 mm 0.01 in0.3 mm
07:44 AM 37.0°F2.8°C 31.7°F-0.2°C 81% 3.0 mph WNW4.8 kmh WNW 9.0 mph14.5 kmh 30.04 in1017.3 mb 0.00 in0.0 mm 0.00 in0.0 mm 0.01 in0.3 mm
07:46 AM 37.0°F2.8°C 31.7°F-0.2°C 81% 3.0 mph WNW4.8 kmh WNW 9.0 mph14.5 kmh 30.05 in1017.6 mb 0.00 in0.0 mm 0.00 in0.0 mm 0.01 in0.3 mm
07:48 AM 37.0°F2.8°C 31.7°F-0.2°C 81% 4.0 mph W6.4 kmh W 9.0 mph14.5 kmh 30.05 in1017.6 mb 0.00 in0.0 mm 0.00 in0.0 mm 0.01 in0.3 mm
07:50 AM 37.0°F2.8°C 31.7°F-0.2°C 81% 3.0 mph W4.8 kmh W 9.0 mph14.5 kmh 30.05 in1017.6 mb 0.00 in0.0 mm 0.00 in0.0 mm 0.01 in0.3 mm
07:52 AM 37.0°F2.8°C 32.0°F0.0°C 82% 4.0 mph W6.4 kmh W 9.0 mph14.5 kmh 30.05 in1017.6 mb 0.00 in0.0 mm 0.00 in0.0 mm 0.01 in0.3 mm
07:54 AM 37.0°F2.8°C 32.0°F0.0°C 82% 2.0 mph WNW3.2 kmh WNW 9.0 mph14.5 kmh 30.05 in1017.6 mb 0.00 in0.0 mm 0.00 in0.0 mm 0.01 in0.3 mm
07:56 AM 36.9°F2.7°C 31.9°F-0.1°C 82% 2.0 mph W3.2 kmh W 9.0 mph14.5 kmh 30.05 in1017.6 mb 0.00 in0.0 mm 0.00 in0.0 mm 0.01 in0.3 mm
07:58 AM 36.9°F2.7°C 31.9°F-0.1°C 82% 3.0 mph S4.8 kmh S 9.0 mph14.5 kmh 30.05 in1017.6 mb 0.00 in0.0 mm 0.00 in0.0 mm 0.01 in0.3 mm
08:00 AM 36.9°F2.7°C 31.9°F-0.1°C 82% 3.0 mph WNW4.8 kmh WNW 7.0 mph11.3 kmh 30.05 in1017.6 mb 0.00 in0.0 mm 0.00 in0.0 mm 0.01 in0.3 mm
08:02 AM 36.9°F2.7°C 31.9°F-0.1°C 82% 4.0 mph W6.4 kmh W 7.0 mph11.3 kmh 30.05 in1017.6 mb 0.00 in0.0 mm 0.00 in0.0 mm 0.01 in0.3 mm
08:04 AM 36.9°F2.7°C 31.9°F-0.1°C 82% 5.0 mph WSW8.0 kmh WSW 10.0 mph16.1 kmh 30.05 in1017.6 mb 0.00 in0.0 mm 0.00 in0.0 mm 0.01 in0.3 mm
08:06 AM 36.9°F2.7°C 31.9°F-0.1°C 82% 6.0 mph W9.7 kmh W 10.0 mph16.1 kmh 30.05 in1017.6 mb 0.00 in0.0 mm 0.00 in0.0 mm 0.01 in0.3 mm
08:08 AM 36.8°F2.7°C 31.8°F-0.1°C 82% 4.0 mph W6.4 kmh W 10.0 mph16.1 kmh 30.05 in1017.6 mb 0.00 in0.0 mm 0.00 in0.0 mm 0.01 in0.3 mm
08:10 AM 36.8°F2.7°C 31.8°F-0.1°C 82% 4.0 mph W6.4 kmh W 10.0 mph16.1 kmh 30.05 in1017.6 mb 0.00 in0.0 mm 0.00 in0.0 mm 0.01 in0.3 mm
08:12 AM 36.8°F2.7°C 31.8°F-0.1°C 82% 4.0 mph NW6.4 kmh NW 10.0 mph16.1 kmh 30.06 in1017.9 mb 0.00 in0.0 mm 0.00 in0.0 mm 0.01 in0.3 mm
08:14 AM 36.8°F2.7°C 31.8°F-0.1°C 82% 5.0 mph NW8.0 kmh NW 10.0 mph16.1 kmh 30.06 in1017.9 mb 0.00 in0.0 mm 0.00 in0.0 mm 0.01 in0.3 mm
08:16 AM 36.8°F2.7°C 31.5°F-0.3°C 81% 1.0 mph W1.6 kmh W 10.0 mph16.1 kmh 30.06 in1017.9 mb 0.00 in0.0 mm 0.00 in0.0 mm 0.01 in0.3 mm
08:18 AM 36.7°F2.6°C 31.4°F-0.3°C 81% 2.0 mph WSW3.2 kmh WSW 10.0 mph16.1 kmh 30.06 in1017.9 mb 0.00 in0.0 mm 0.00 in0.0 mm 0.01 in0.3 mm
08:20 AM 36.8°F2.7°C 31.8°F-0.1°C 82% 2.0 mph NW3.2 kmh NW 10.0 mph16.1 kmh 30.06 in1017.9 mb 0.00 in0.0 mm 0.00 in0.0 mm 0.01 in0.3 mm
08:22 AM 36.7°F2.6°C 31.7°F-0.2°C 82% 2.0 mph SSE3.2 kmh SSE 10.0 mph16.1 kmh 30.06 in1017.9 mb 0.00 in0.0 mm 0.00 in0.0 mm 0.01 in0.3 mm
08:24 AM 36.7°F2.6°C 31.7°F-0.2°C 82% 3.0 mph W4.8 kmh W 9.0 mph14.5 kmh 30.06 in1017.9 mb 0.00 in0.0 mm 0.00 in0.0 mm 0.01 in0.3 mm
08:26 AM 36.8°F2.7°C 31.8°F-0.1°C 82% 3.0 mph W4.8 kmh W 9.0 mph14.5 kmh 30.06 in1017.9 mb 0.00 in0.0 mm 0.00 in0.0 mm 0.01 in0.3 mm
08:28 AM 36.8°F2.7°C 31.8°F-0.1°C 82% 3.0 mph WNW4.8 kmh WNW 9.0 mph14.5 kmh 30.07 in1018.3 mb 0.00 in0.0 mm 0.00 in0.0 mm 0.01 in0.3 mm
08:30 AM 36.8°F2.7°C 31.8°F-0.1°C 82% 4.0 mph NW6.4 kmh NW 9.0 mph14.5 kmh 30.07 in1018.3 mb 0.00 in0.0 mm 0.00 in0.0 mm 0.01 in0.3 mm
08:32 AM 36.7°F2.6°C 31.7°F-0.2°C 82% 3.0 mph SW4.8 kmh SW 9.0 mph14.5 kmh 30.07 in1018.3 mb 0.00 in0.0 mm 0.00 in0.0 mm 0.01 in0.3 mm
08:34 AM 36.7°F2.6°C 31.7°F-0.2°C 82% 2.0 mph W3.2 kmh W 10.0 mph16.1 kmh 30.07 in1018.3 mb 0.00 in0.0 mm 0.00 in0.0 mm 0.01 in0.3 mm
08:36 AM 36.7°F2.6°C 31.7°F-0.2°C 82% 4.0 mph WSW6.4 kmh WSW 10.0 mph16.1 kmh 30.07 in1018.3 mb 0.00 in0.0 mm 0.00 in0.0 mm 0.01 in0.3 mm
08:38 AM 36.7°F2.6°C 31.7°F-0.2°C 82% 4.0 mph WSW6.4 kmh WSW 10.0 mph16.1 kmh 30.07 in1018.3 mb 0.00 in0.0 mm 0.00 in0.0 mm 0.01 in0.3 mm
08:40 AM 36.7°F2.6°C 31.4°F-0.3°C 81% 1.0 mph WSW1.6 kmh WSW 10.0 mph16.1 kmh 30.07 in1018.3 mb 0.00 in0.0 mm 0.00 in0.0 mm 0.01 in0.3 mm
08:42 AM 36.7°F2.6°C 31.4°F-0.3°C 81% 5.0 mph NW8.0 kmh NW 10.0 mph16.1 kmh 30.07 in1018.3 mb 0.00 in0.0 mm 0.00 in0.0 mm 0.01 in0.3 mm
08:44 AM 36.7°F2.6°C 31.4°F-0.3°C 81% 3.0 mph W4.8 kmh W 10.0 mph16.1 kmh 30.07 in1018.3 mb 0.00 in0.0 mm 0.00 in0.0 mm 0.01 in0.3 mm
08:46 AM 36.7°F2.6°C 31.4°F-0.3°C 81% 6.0 mph NW9.7 kmh NW 10.0 mph16.1 kmh 30.07 in1018.3 mb 0.00 in0.0 mm 0.00 in0.0 mm 0.01 in0.3 mm
08:48 AM 36.7°F2.6°C 31.4°F-0.3°C 81% 3.0 mph W4.8 kmh W 10.0 mph16.1 kmh 30.07 in1018.3 mb 0.00 in0.0 mm 0.00 in0.0 mm 0.01 in0.3 mm
08:50 AM 36.7°F2.6°C 31.4°F-0.3°C 81% 4.0 mph W6.4 kmh W 10.0 mph16.1 kmh 30.08 in1018.6 mb 0.00 in0.0 mm 0.00 in0.0 mm 0.01 in0.3 mm
08:52 AM 36.7°F2.6°C 31.4°F-0.3°C 81% 5.0 mph WSW8.0 kmh WSW 10.0 mph16.1 kmh 30.08 in1018.6 mb 0.00 in0.0 mm 0.00 in0.0 mm 0.01 in0.3 mm
08:54 AM 36.7°F2.6°C 31.4°F-0.3°C 81% 3.0 mph W4.8 kmh W 10.0 mph16.1 kmh 30.08 in1018.6 mb 0.00 in0.0 mm 0.00 in0.0 mm 0.01 in0.3 mm
08:56 AM 36.7°F2.6°C 31.4°F-0.3°C 81% 4.0 mph W6.4 kmh W 10.0 mph16.1 kmh 30.08 in1018.6 mb 0.00 in0.0 mm 0.00 in0.0 mm 0.01 in0.3 mm
08:58 AM 36.7°F2.6°C 31.1°F-0.5°C 80% 3.0 mph WNW4.8 kmh WNW 10.0 mph16.1 kmh 30.08 in1018.6 mb 0.00 in0.0 mm 0.00 in0.0 mm 0.01 in0.3 mm
09:00 AM 36.7°F2.6°C 31.4°F-0.3°C 81% 3.0 mph WNW4.8 kmh WNW 10.0 mph16.1 kmh 30.08 in1018.6 mb 0.00 in0.0 mm 0.00 in0.0 mm 0.01 in0.3 mm
09:02 AM 36.7°F2.6°C 31.1°F-0.5°C 80% 5.0 mph WNW8.0 kmh WNW 10.0 mph16.1 kmh 30.09 in1019.0 mb 0.00 in0.0 mm 0.00 in0.0 mm 0.01 in0.3 mm
09:04 AM 36.7°F2.6°C 31.4°F-0.3°C 81% 1.0 mph W1.6 kmh W 10.0 mph16.1 kmh 30.09 in1019.0 mb 0.00 in0.0 mm 0.00 in0.0 mm 0.01 in0.3 mm
09:06 AM 36.7°F2.6°C 31.4°F-0.3°C 81% 5.0 mph NW8.0 kmh NW 10.0 mph16.1 kmh 30.09 in1019.0 mb 0.00 in0.0 mm 0.00 in0.0 mm 0.01 in0.3 mm
09:08 AM 36.7°F2.6°C 31.1°F-0.5°C 80% 2.0 mph WNW3.2 kmh WNW 10.0 mph16.1 kmh 30.09 in1019.0 mb 0.00 in0.0 mm 0.00 in0.0 mm 0.01 in0.3 mm
09:10 AM 36.7°F2.6°C 31.4°F-0.3°C 81% 3.0 mph W4.8 kmh W 10.0 mph16.1 kmh 30.09 in1019.0 mb 0.00 in0.0 mm 0.00 in0.0 mm 0.01 in0.3 mm
09:12 AM 36.8°F2.7°C 31.5°F-0.3°C 81% 2.0 mph W3.2 kmh W 10.0 mph16.1 kmh 30.09 in1019.0 mb 0.00 in0.0 mm 0.00 in0.0 mm 0.01 in0.3 mm
09:14 AM 36.8°F2.7°C 31.5°F-0.3°C 81% 4.0 mph NW6.4 kmh NW 10.0 mph16.1 kmh 30.09 in1019.0 mb 0.00 in0.0 mm 0.00 in0.0 mm 0.01 in0.3 mm
09:16 AM 36.8°F2.7°C 31.2°F-0.4°C 80% 7.0 mph WNW11.3 kmh WNW 10.0 mph16.1 kmh 30.09 in1019.0 mb 0.00 in0.0 mm 0.00 in0.0 mm 0.01 in0.3 mm
09:18 AM 36.8°F2.7°C 31.2°F-0.4°C 80% 3.0 mph NW4.8 kmh NW 7.0 mph11.3 kmh 30.09 in1019.0 mb 0.00 in0.0 mm 0.00 in0.0 mm 0.01 in0.3 mm
09:20 AM 36.9°F2.7°C 31.3°F-0.4°C 80% 2.0 mph W3.2 kmh W 7.0 mph11.3 kmh 30.09 in1019.0 mb 0.00 in0.0 mm 0.00 in0.0 mm 0.01 in0.3 mm
09:22 AM 36.9°F2.7°C 31.3°F-0.4°C 80% 1.0 mph NW1.6 kmh NW 7.0 mph11.3 kmh 30.09 in1019.0 mb 0.00 in0.0 mm 0.00 in0.0 mm 0.01 in0.3 mm
09:24 AM 36.9°F2.7°C 31.3°F-0.4°C 80% 4.0 mph NW6.4 kmh NW 7.0 mph11.3 kmh 30.09 in1019.0 mb 0.00 in0.0 mm 0.00 in0.0 mm 0.01 in0.3 mm
09:26 AM 36.9°F2.7°C 31.3°F-0.4°C 80% 3.0 mph NW4.8 kmh NW 8.0 mph12.9 kmh 30.09 in1019.0 mb 0.00 in0.0 mm 0.00 in0.0 mm 0.01 in0.3 mm
09:28 AM 36.9°F2.7°C 31.3°F-0.4°C 80% 3.0 mph WNW4.8 kmh WNW 8.0 mph12.9 kmh 30.09 in1019.0 mb 0.00 in0.0 mm 0.00 in0.0 mm 0.01 in0.3 mm
09:30 AM 36.9°F2.7°C 31.3°F-0.4°C 80% 3.0 mph W4.8 kmh W 8.0 mph12.9 kmh 30.10 in1019.3 mb 0.00 in0.0 mm 0.00 in0.0 mm 0.01 in0.3 mm
09:32 AM 36.9°F2.7°C 31.0°F-0.6°C 79% 3.0 mph NW4.8 kmh NW 8.0 mph12.9 kmh 30.10 in1019.3 mb 0.00 in0.0 mm 0.00 in0.0 mm 0.01 in0.3 mm
09:34 AM 36.9°F2.7°C 31.0°F-0.6°C 79% 6.0 mph WSW9.7 kmh WSW 8.0 mph12.9 kmh 30.10 in1019.3 mb 0.00 in0.0 mm 0.00 in0.0 mm 0.01 in0.3 mm
09:36 AM 36.9°F2.7°C 30.7°F-0.7°C 78% 5.0 mph WNW8.0 kmh WNW 8.0 mph12.9 kmh 30.10 in1019.3 mb 0.00 in0.0 mm 0.00 in0.0 mm 0.01 in0.3 mm
09:38 AM 36.9°F2.7°C 31.0°F-0.6°C 79% 7.0 mph W11.3 kmh W 10.0 mph16.1 kmh 30.10 in1019.3 mb 0.00 in0.0 mm 0.00 in0.0 mm 0.01 in0.3 mm
09:40 AM 36.9°F2.7°C 30.7°F-0.7°C 78% 3.0 mph NW4.8 kmh NW 10.0 mph16.1 kmh 30.10 in1019.3 mb 0.00 in0.0 mm 0.00 in0.0 mm 0.01 in0.3 mm
09:42 AM 36.8°F2.7°C 30.6°F-0.8°C 78% 3.0 mph WNW4.8 kmh WNW 10.0 mph16.1 kmh 30.10 in1019.3 mb 0.00 in0.0 mm 0.00 in0.0 mm 0.01 in0.3 mm
09:44 AM 36.8°F2.7°C 30.9°F-0.6°C 79% 3.0 mph NW4.8 kmh NW 10.0 mph16.1 kmh 30.10 in1019.3 mb 0.00 in0.0 mm 0.00 in0.0 mm 0.01 in0.3 mm
09:46 AM 36.8°F2.7°C 30.9°F-0.6°C 79% 1.0 mph NNW1.6 kmh NNW 10.0 mph16.1 kmh 30.10 in1019.3 mb 0.00 in0.0 mm 0.00 in0.0 mm 0.01 in0.3 mm
09:48 AM 36.8°F2.7°C 30.9°F-0.6°C 79% 3.0 mph NW4.8 kmh NW 10.0 mph16.1 kmh 30.10 in1019.3 mb 0.00 in0.0 mm 0.00 in0.0 mm 0.01 in0.3 mm
09:50 AM 36.8°F2.7°C 30.9°F-0.6°C 79% 1.0 mph WNW1.6 kmh WNW 10.0 mph16.1 kmh 30.11 in1019.6 mb 0.00 in0.0 mm 0.00 in0.0 mm 0.01 in0.3 mm
09:52 AM 36.8°F2.7°C 30.6°F-0.8°C 78% 6.0 mph W9.7 kmh W 10.0 mph16.1 kmh 30.10 in1019.3 mb 0.00 in0.0 mm 0.00 in0.0 mm 0.01 in0.3 mm
09:54 AM 36.9°F2.7°C 31.0°F-0.6°C 79% 5.0 mph NW8.0 kmh NW 10.0 mph16.1 kmh 30.11 in1019.6 mb 0.00 in0.0 mm 0.00 in0.0 mm 0.01 in0.3 mm
09:56 AM 36.8°F2.7°C 30.6°F-0.8°C 78% 3.0 mph NW4.8 kmh NW 10.0 mph16.1 kmh 30.11 in1019.6 mb 0.00 in0.0 mm 0.00 in0.0 mm 0.01 in0.3 mm
09:58 AM 36.8°F2.7°C 30.6°F-0.8°C 78% 3.0 mph NW4.8 kmh NW 9.0 mph14.5 kmh 30.11 in1019.6 mb 0.00 in0.0 mm 0.00 in0.0 mm 0.01 in0.3 mm
10:00 AM 36.8°F2.7°C 30.6°F-0.8°C 78% 2.0 mph N3.2 kmh N 9.0 mph14.5 kmh 30.11 in1019.6 mb 0.00 in0.0 mm 0.00 in0.0 mm 0.01 in0.3 mm
10:02 AM 36.8°F2.7°C 30.6°F-0.8°C 78% 3.0 mph NW4.8 kmh NW 9.0 mph14.5 kmh 30.11 in1019.6 mb 0.00 in0.0 mm 0.00 in0.0 mm 0.01 in0.3 mm
10:04 AM 36.8°F2.7°C 30.6°F-0.8°C 78% 3.0 mph W4.8 kmh W 9.0 mph14.5 kmh 30.11 in1019.6 mb 0.00 in0.0 mm 0.00 in0.0 mm 0.01 in0.3 mm
10:06 AM 36.8°F2.7°C 30.6°F-0.8°C 78% 3.0 mph NW4.8 kmh NW 9.0 mph14.5 kmh 30.11 in1019.6 mb 0.00 in0.0 mm 0.00 in0.0 mm 0.01 in0.3 mm
10:08 AM 36.8°F2.7°C 30.6°F-0.8°C 78% 3.0 mph NW4.8 kmh NW 9.0 mph14.5 kmh 30.11 in1019.6 mb 0.00 in0.0 mm 0.00 in0.0 mm 0.01 in0.3 mm
10:10 AM 36.8°F2.7°C 30.6°F-0.8°C 78% 3.0 mph W4.8 kmh W 9.0 mph14.5 kmh 30.11 in1019.6 mb 0.00 in0.0 mm 0.00 in0.0 mm 0.01 in0.3 mm
10:12 AM 36.8°F2.7°C 30.6°F-0.8°C 78% 3.0 mph NW4.8 kmh NW 9.0 mph14.5 kmh 30.11 in1019.6 mb 0.00 in0.0 mm 0.00 in0.0 mm 0.01 in0.3 mm
10:14 AM 36.8°F2.7°C 30.9°F-0.6°C 79% 1.0 mph WNW1.6 kmh WNW 9.0 mph14.5 kmh 30.12 in1020.0 mb 0.00 in0.0 mm 0.00 in0.0 mm 0.01 in0.3 mm
10:16 AM 36.8°F2.7°C 30.6°F-0.8°C 78% 3.0 mph W4.8 kmh W 9.0 mph14.5 kmh 30.12 in1020.0 mb 0.00 in0.0 mm 0.00 in0.0 mm 0.01 in0.3 mm
10:18 AM 36.8°F2.7°C 30.6°F-0.8°C 78% 3.0 mph W4.8 kmh W 9.0 mph14.5 kmh 30.12 in1020.0 mb 0.00 in0.0 mm 0.00 in0.0 mm 0.01 in0.3 mm
10:20 AM 36.8°F2.7°C 30.6°F-0.8°C 78% 4.0 mph NW6.4 kmh NW 8.0 mph12.9 kmh 30.12 in1020.0 mb 0.00 in0.0 mm 0.00 in0.0 mm 0.01 in0.3 mm
10:22 AM 36.8°F2.7°C 30.6°F-0.8°C 78% 9.0 mph NW14.5 kmh NW 9.0 mph14.5 kmh 30.12 in1020.0 mb 0.00 in0.0 mm 0.00 in0.0 mm 0.01 in0.3 mm
10:24 AM 36.7°F2.6°C 30.5°F-0.8°C 78% 6.0 mph NNW9.7 kmh NNW 10.0 mph16.1 kmh 30.12 in1020.0 mb 0.00 in0.0 mm 0.00 in0.0 mm 0.01 in0.3 mm
10:26 AM 36.7°F2.6°C 30.5°F-0.8°C 78% 4.0 mph NW6.4 kmh NW 10.0 mph16.1 kmh 30.12 in1020.0 mb 0.00 in0.0 mm 0.00 in0.0 mm 0.01 in0.3 mm
10:28 AM 36.6°F2.6°C 30.4°F-0.9°C 78% 4.0 mph NW6.4 kmh NW 10.0 mph16.1 kmh 30.12 in1020.0 mb 0.00 in0.0 mm 0.00 in0.0 mm 0.01 in0.3 mm
10:30 AM 36.6°F2.6°C 30.4°F-0.9°C 78% 2.0 mph NNE3.2 kmh NNE 10.0 mph16.1 kmh 30.12 in1020.0 mb 0.00 in0.0 mm 0.00 in0.0 mm 0.01 in0.3 mm
10:32 AM 36.7°F2.6°C 30.8°F-0.7°C 79% 3.0 mph NW4.8 kmh NW 10.0 mph16.1 kmh 30.12 in1020.0 mb 0.00 in0.0 mm 0.00 in0.0 mm 0.01 in0.3 mm
10:34 AM 36.7°F2.6°C 30.8°F-0.7°C 79% 2.0 mph NW3.2 kmh NW 10.0 mph16.1 kmh 30.12 in1020.0 mb 0.00 in0.0 mm 0.00 in0.0 mm 0.01 in0.3 mm
10:36 AM 36.8°F2.7°C 30.9°F-0.6°C 79% 4.0 mph WNW6.4 kmh WNW 10.0 mph16.1 kmh 30.12 in1020.0 mb 0.00 in0.0 mm 0.00 in0.0 mm 0.01 in0.3 mm
10:38 AM 36.7°F2.6°C 30.5°F-0.8°C 78% 5.0 mph NW8.0 kmh NW 10.0 mph16.1 kmh 30.13 in1020.3 mb 0.00 in0.0 mm 0.00 in0.0 mm 0.01 in0.3 mm
10:40 AM 36.7°F2.6°C 30.5°F-0.8°C 78% 2.0 mph WNW3.2 kmh WNW 10.0 mph16.1 kmh 30.13 in1020.3 mb 0.00 in0.0 mm 0.00 in0.0 mm 0.01 in0.3 mm
10:42 AM 36.6°F2.6°C 30.4°F-0.9°C 78% 5.0 mph NW8.0 kmh NW 11.0 mph17.7 kmh 30.13 in1020.3 mb 0.00 in0.0 mm 0.00 in0.0 mm 0.01 in0.3 mm
10:44 AM 36.6°F2.6°C 30.7°F-0.7°C 79% 3.0 mph NNW4.8 kmh NNW 11.0 mph17.7 kmh 30.13 in1020.3 mb 0.00 in0.0 mm 0.00 in0.0 mm 0.01 in0.3 mm
10:46 AM 36.6°F2.6°C 30.7°F-0.7°C 79% 3.0 mph NW4.8 kmh NW 11.0 mph17.7 kmh 30.13 in1020.3 mb 0.00 in0.0 mm 0.00 in0.0 mm 0.01 in0.3 mm
10:48 AM 36.7°F2.6°C 30.5°F-0.8°C 78% 2.0 mph WNW3.2 kmh WNW 11.0 mph17.7 kmh 30.13 in1020.3 mb 0.00 in0.0 mm 0.00 in0.0 mm 0.01 in0.3 mm
10:50 AM 36.6°F2.6°C 30.4°F-0.9°C 78% 3.0 mph NW4.8 kmh NW 11.0 mph17.7 kmh 30.13 in1020.3 mb 0.00 in0.0 mm 0.00 in0.0 mm 0.01 in0.3 mm
10:52 AM 36.6°F2.6°C 30.4°F-0.9°C 78% 8.0 mph NW12.9 kmh NW 11.0 mph17.7 kmh 30.13 in1020.3 mb 0.00 in0.0 mm 0.00 in0.0 mm 0.01 in0.3 mm
10:54 AM 36.6°F2.6°C 30.7°F-0.7°C 79% 2.0 mph NW3.2 kmh NW 11.0 mph17.7 kmh 30.13 in1020.3 mb 0.00 in0.0 mm 0.00 in0.0 mm 0.01 in0.3 mm
10:56 AM 36.6°F2.6°C 30.7°F-0.7°C 79% 3.0 mph 4.8 kmh 11.0 mph17.7 kmh 30.14 in1020.7 mb 0.00 in0.0 mm 0.00 in0.0 mm 0.01 in0.3 mm
10:58 AM 36.6°F2.6°C 30.7°F-0.7°C 79% 5.0 mph NW8.0 kmh NW 11.0 mph17.7 kmh 30.14 in1020.7 mb 0.00 in0.0 mm 0.00 in0.0 mm 0.01 in0.3 mm
11:00 AM 36.6°F2.6°C 30.4°F-0.9°C 78% 3.0 mph WNW4.8 kmh WNW 11.0 mph17.7 kmh 30.14 in1020.7 mb 0.00 in0.0 mm 0.00 in0.0 mm 0.01 in0.3 mm
11:02 AM 36.6°F2.6°C 30.4°F-0.9°C 78% 3.0 mph W4.8 kmh W 11.0 mph17.7 kmh 30.14 in1020.7 mb 0.00 in0.0 mm 0.00 in0.0 mm 0.01 in0.3 mm
11:04 AM 36.6°F2.6°C 30.7°F-0.7°C 79% 3.0 mph W4.8 kmh W 11.0 mph17.7 kmh 30.14 in1020.7 mb 0.00 in0.0 mm 0.00 in0.0 mm 0.01 in0.3 mm
11:06 AM 36.6°F2.6°C 30.7°F-0.7°C 79% 2.0 mph NW3.2 kmh NW 11.0 mph17.7 kmh 30.14 in1020.7 mb 0.00 in0.0 mm 0.00 in0.0 mm 0.01 in0.3 mm
11:08 AM 36.6°F2.6°C 30.7°F-0.7°C 79% 2.0 mph NNW3.2 kmh NNW 11.0 mph17.7 kmh 30.14 in1020.7 mb 0.00 in0.0 mm 0.00 in0.0 mm 0.01 in0.3 mm
11:10 AM 36.6°F2.6°C 31.0°F-0.6°C 80% 2.0 mph N3.2 kmh N 11.0 mph17.7 kmh 30.14 in1020.7 mb 0.00 in0.0 mm 0.00 in0.0 mm 0.01 in0.3 mm
11:12 AM 36.7°F2.6°C 30.8°F-0.7°C 79% 5.0 mph WNW8.0 kmh WNW 11.0 mph17.7 kmh 30.14 in1020.7 mb 0.00 in0.0 mm 0.00 in0.0 mm 0.01 in0.3 mm
11:14 AM 36.7°F2.6°C 30.8°F-0.7°C 79% 3.0 mph NW4.8 kmh NW 8.0 mph12.9 kmh 30.14 in1020.7 mb 0.00 in0.0 mm 0.00 in0.0 mm 0.01 in0.3 mm
11:16 AM 36.7°F2.6°C 30.5°F-0.8°C 78% 2.0 mph W3.2 kmh W 8.0 mph12.9 kmh 30.14 in1020.7 mb 0.00 in0.0 mm 0.00 in0.0 mm 0.01 in0.3 mm
11:18 AM 36.7°F2.6°C 30.8°F-0.7°C 79% 5.0 mph WSW8.0 kmh WSW 8.0 mph12.9 kmh 30.14 in1020.7 mb 0.00 in0.0 mm 0.00 in0.0 mm 0.01 in0.3 mm
11:20 AM 36.7°F2.6°C 30.5°F-0.8°C 78% 4.0 mph W6.4 kmh W 8.0 mph12.9 kmh 30.14 in1020.7 mb 0.00 in0.0 mm 0.00 in0.0 mm 0.01 in0.3 mm
11:22 AM 36.7°F2.6°C 30.8°F-0.7°C 79% 3.0 mph WNW4.8 kmh WNW 8.0 mph12.9 kmh 30.14 in1020.7 mb 0.00 in0.0 mm 0.00 in0.0 mm 0.01 in0.3 mm
11:24 AM 36.8°F2.7°C 30.6°F-0.8°C 78% 2.0 mph NW3.2 kmh NW 7.0 mph11.3 kmh 30.14 in1020.7 mb 0.00 in0.0 mm 0.00 in0.0 mm 0.01 in0.3 mm
11:26 AM 36.8°F2.7°C 30.9°F-0.6°C 79% 4.0 mph NW6.4 kmh NW 7.0 mph11.3 kmh 30.14 in1020.7 mb 0.00 in0.0 mm 0.00 in0.0 mm 0.01 in0.3 mm
11:28 AM 36.8°F2.7°C 30.6°F-0.8°C 78% 3.0 mph NW4.8 kmh NW 7.0 mph11.3 kmh 30.14 in1020.7 mb 0.00 in0.0 mm 0.00 in0.0 mm 0.01 in0.3 mm
11:30 AM 36.8°F2.7°C 30.9°F-0.6°C 79% 2.0 mph S3.2 kmh S 9.0 mph14.5 kmh 30.14 in1020.7 mb 0.00 in0.0 mm 0.00 in0.0 mm 0.01 in0.3 mm
11:32 AM 36.8°F2.7°C 30.6°F-0.8°C 78% 4.0 mph NW6.4 kmh NW 9.0 mph14.5 kmh 30.14 in1020.7 mb 0.00 in0.0 mm 0.00 in0.0 mm 0.01 in0.3 mm
11:34 AM 36.9°F2.7°C 30.7°F-0.7°C 78% 7.0 mph WNW11.3 kmh WNW 9.0 mph14.5 kmh 30.14 in1020.7 mb 0.00 in0.0 mm 0.00 in0.0 mm 0.01 in0.3 mm
11:36 AM 36.9°F2.7°C 30.7°F-0.7°C 78% 7.0 mph WNW11.3 kmh WNW 13.0 mph20.9 kmh 30.14 in1020.7 mb 0.00 in0.0 mm 0.00 in0.0 mm 0.01 in0.3 mm
11:38 AM 36.9°F2.7°C 31.0°F-0.6°C 79% 3.0 mph WSW4.8 kmh WSW 13.0 mph20.9 kmh 30.14 in1020.7 mb 0.00 in0.0 mm 0.00 in0.0 mm 0.01 in0.3 mm
11:40 AM 36.9°F2.7°C 30.7°F-0.7°C 78% 3.0 mph SW4.8 kmh SW 13.0 mph20.9 kmh 30.14 in1020.7 mb 0.00 in0.0 mm 0.00 in0.0 mm 0.01 in0.3 mm
11:42 AM 37.0°F2.8°C 30.8°F-0.7°C 78% 4.0 mph NW6.4 kmh NW 13.0 mph20.9 kmh 30.14 in1020.7 mb 0.00 in0.0 mm 0.00 in0.0 mm 0.01 in0.3 mm
11:44 AM 37.0°F2.8°C 30.8°F-0.7°C 78% 4.0 mph WNW6.4 kmh WNW 13.0 mph20.9 kmh 30.14 in1020.7 mb 0.00 in0.0 mm 0.00 in0.0 mm 0.01 in0.3 mm
11:46 AM 37.0°F2.8°C 30.8°F-0.7°C 78% 4.0 mph W6.4 kmh W 13.0 mph20.9 kmh 30.13 in1020.3 mb 0.00 in0.0 mm 0.00 in0.0 mm 0.01 in0.3 mm
11:48 AM 37.1°F2.8°C 31.2°F-0.4°C 79% 2.0 mph NW3.2 kmh NW 13.0 mph20.9 kmh 30.13 in1020.3 mb 0.00 in0.0 mm 0.00 in0.0 mm 0.01 in0.3 mm
11:50 AM 37.2°F2.9°C 31.3°F-0.4°C 79% 2.0 mph NW3.2 kmh NW 13.0 mph20.9 kmh 30.13 in1020.3 mb 0.00 in0.0 mm 0.00 in0.0 mm 0.01 in0.3 mm
11:52 AM 37.3°F2.9°C 31.1°F-0.5°C 78% 1.0 mph NW1.6 kmh NW 13.0 mph20.9 kmh 30.13 in1020.3 mb 0.00 in0.0 mm 0.00 in0.0 mm 0.01 in0.3 mm
11:54 AM 37.4°F3.0°C 31.2°F-0.4°C 78% 3.0 mph W4.8 kmh W 13.0 mph20.9 kmh 30.13 in1020.3 mb 0.00 in0.0 mm 0.00 in0.0 mm 0.01 in0.3 mm
11:56 AM 37.5°F3.1°C 31.3°F-0.4°C 78% 3.0 mph NW4.8 kmh NW 6.0 mph9.7 kmh 30.12 in1020.0 mb 0.00 in0.0 mm 0.00 in0.0 mm 0.01 in0.3 mm
11:58 AM 37.6°F3.1°C 31.7°F-0.2°C 79% 3.0 mph NW4.8 kmh NW 6.0 mph9.7 kmh 30.12 in1020.0 mb 0.00 in0.0 mm 0.00 in0.0 mm 0.01 in0.3 mm
12:00 PM 37.8°F3.2°C 31.6°F-0.2°C 78% 4.0 mph W6.4 kmh W 7.0 mph11.3 kmh 30.13 in1020.3 mb 0.00 in0.0 mm 0.00 in0.0 mm 0.01 in0.3 mm
12:02 PM 37.9°F3.3°C 31.3°F-0.4°C 77% 2.0 mph NNW3.2 kmh NNW 7.0 mph11.3 kmh 30.13 in1020.3 mb 0.00 in0.0 mm 0.00 in0.0 mm 0.01 in0.3 mm
12:04 PM 38.0°F3.3°C 31.8°F-0.1°C 78% 2.0 mph WNW3.2 kmh WNW 7.0 mph11.3 kmh 30.12 in1020.0 mb 0.00 in0.0 mm 0.00 in0.0 mm 0.01 in0.3 mm
12:06 PM 38.2°F3.4°C 31.6°F-0.2°C 77% 4.0 mph WNW6.4 kmh WNW 10.0 mph16.1 kmh 30.12 in1020.0 mb 0.00 in0.0 mm 0.00 in0.0 mm 0.01 in0.3 mm
12:08 PM 38.3°F3.5°C 31.4°F-0.3°C 76% 2.0 mph WNW3.2 kmh WNW 10.0 mph16.1 kmh 30.12 in1020.0 mb 0.00 in0.0 mm 0.00 in0.0 mm 0.01 in0.3 mm
12:10 PM 38.3°F3.5°C 31.7°F-0.2°C 77% 4.0 mph WNW6.4 kmh WNW 11.0 mph17.7 kmh 30.12 in1020.0 mb 0.00 in0.0 mm 0.00 in0.0 mm 0.01 in0.3 mm
12:12 PM 38.4°F3.6°C 31.5°F-0.3°C 76% 4.0 mph NW6.4 kmh NW 11.0 mph17.7 kmh 30.13 in1020.3 mb 0.00 in0.0 mm 0.00 in0.0 mm 0.01 in0.3 mm
12:14 PM 38.4°F3.6°C 31.5°F-0.3°C 76% 3.0 mph N4.8 kmh N 11.0 mph17.7 kmh 30.13 in1020.3 mb 0.00 in0.0 mm 0.00 in0.0 mm 0.01 in0.3 mm
12:16 PM 38.4°F3.6°C 31.5°F-0.3°C 76% 4.0 mph W6.4 kmh W 11.0 mph17.7 kmh 30.13 in1020.3 mb 0.00 in0.0 mm 0.00 in0.0 mm 0.01 in0.3 mm
12:18 PM 38.4°F3.6°C 31.2°F-0.4°C 75% 3.0 mph NW4.8 kmh NW 11.0 mph17.7 kmh 30.13 in1020.3 mb 0.00 in0.0 mm 0.00 in0.0 mm 0.01 in0.3 mm
12:20 PM 38.4°F3.6°C 31.2°F-0.4°C 75% 4.0 mph NW6.4 kmh NW 11.0 mph17.7 kmh 30.13 in1020.3 mb 0.00 in0.0 mm 0.00 in0.0 mm 0.01 in0.3 mm
12:22 PM 38.3°F3.5°C 31.1°F-0.5°C 75% 4.0 mph NW6.4 kmh NW 11.0 mph17.7 kmh 30.13 in1020.3 mb 0.00 in0.0 mm 0.00 in0.0 mm 0.01 in0.3 mm
12:24 PM 38.3°F3.5°C 31.1°F-0.5°C 75% 3.0 mph NW4.8 kmh NW 11.0 mph17.7 kmh 30.13 in1020.3 mb 0.00 in0.0 mm 0.00 in0.0 mm 0.01 in0.3 mm
12:26 PM 38.3°F3.5°C 31.1°F-0.5°C 75% 3.0 mph WSW4.8 kmh WSW 11.0 mph17.7 kmh 30.13 in1020.3 mb 0.00 in0.0 mm 0.00 in0.0 mm 0.01 in0.3 mm
12:28 PM 38.3°F3.5°C 31.4°F-0.3°C 76% 3.0 mph W4.8 kmh W 11.0 mph17.7 kmh 30.13 in1020.3 mb 0.00 in0.0 mm 0.00 in0.0 mm 0.01 in0.3 mm
12:30 PM 38.3°F3.5°C 31.4°F-0.3°C 76% 3.0 mph NW4.8 kmh NW 6.0 mph9.7 kmh 30.13 in1020.3 mb 0.00 in0.0 mm 0.00 in0.0 mm 0.01 in0.3 mm
12:32 PM 38.3°F3.5°C 31.7°F-0.2°C 77% 2.0 mph N3.2 kmh N 11.0 mph17.7 kmh 30.13 in1020.3 mb 0.00 in0.0 mm 0.00 in0.0 mm 0.01 in0.3 mm
12:34 PM 38.2°F3.4°C 31.0°F-0.6°C 75% 5.0 mph NW8.0 kmh NW 11.0 mph17.7 kmh 30.13 in1020.3 mb 0.00 in0.0 mm 0.00 in0.0 mm 0.01 in0.3 mm
12:36 PM 38.2°F3.4°C 31.0°F-0.6°C 75% 2.0 mph W3.2 kmh W 11.0 mph17.7 kmh 30.13 in1020.3 mb 0.00 in0.0 mm 0.00 in0.0 mm 0.01 in0.3 mm
12:38 PM 38.1°F3.4°C 31.2°F-0.4°C 76% 2.0 mph WSW3.2 kmh WSW 11.0 mph17.7 kmh 30.14 in1020.7 mb 0.00 in0.0 mm 0.00 in0.0 mm 0.01 in0.3 mm
12:40 PM 38.0°F3.3°C 30.8°F-0.7°C 75% 4.0 mph W6.4 kmh W 11.0 mph17.7 kmh 30.14 in1020.7 mb 0.00 in0.0 mm 0.00 in0.0 mm 0.01 in0.3 mm
12:42 PM 38.0°F3.3°C 31.1°F-0.5°C 76% 2.0 mph NW3.2 kmh NW 11.0 mph17.7 kmh 30.13 in1020.3 mb 0.00 in0.0 mm 0.00 in0.0 mm 0.01 in0.3 mm
12:44 PM 37.9°F3.3°C 31.0°F-0.6°C 76% 6.0 mph W9.7 kmh W 11.0 mph17.7 kmh 30.13 in1020.3 mb 0.00 in0.0 mm 0.00 in0.0 mm 0.01 in0.3 mm
12:46 PM 37.9°F3.3°C 31.0°F-0.6°C 76% 2.0 mph NW3.2 kmh NW 11.0 mph17.7 kmh 30.13 in1020.3 mb 0.00 in0.0 mm 0.00 in0.0 mm 0.01 in0.3 mm
12:48 PM 37.9°F3.3°C 31.0°F-0.6°C 76% 3.0 mph WNW4.8 kmh WNW 11.0 mph17.7 kmh 30.13 in1020.3 mb 0.00 in0.0 mm 0.00 in0.0 mm 0.01 in0.3 mm
12:50 PM 37.9°F3.3°C 31.0°F-0.6°C 76% 4.0 mph NW6.4 kmh NW 11.0 mph17.7 kmh 30.13 in1020.3 mb 0.00 in0.0 mm 0.00 in0.0 mm 0.01 in0.3 mm
12:52 PM 38.0°F3.3°C 31.4°F-0.3°C 77% 3.0 mph W4.8 kmh W 7.0 mph11.3 kmh 30.13 in1020.3 mb 0.00 in0.0 mm 0.00 in0.0 mm 0.01 in0.3 mm
12:54 PM 38.0°F3.3°C 31.4°F-0.3°C 77% 2.0 mph W3.2 kmh W 7.0 mph11.3 kmh 30.13 in1020.3 mb 0.00 in0.0 mm 0.00 in0.0 mm 0.01 in0.3 mm
12:56 PM 38.0°F3.3°C 31.1°F-0.5°C 76% 1.0 mph NW1.6 kmh NW 7.0 mph11.3 kmh 30.13 in1020.3 mb 0.00 in0.0 mm 0.00 in0.0 mm 0.01 in0.3 mm
12:58 PM 38.1°F3.4°C 31.5°F-0.3°C 77% 2.0 mph W3.2 kmh W 7.0 mph11.3 kmh 30.13 in1020.3 mb 0.00 in0.0 mm 0.00 in0.0 mm 0.01 in0.3 mm
01:00 PM 38.1°F3.4°C 31.2°F-0.4°C 76% 4.0 mph WNW6.4 kmh WNW 7.0 mph11.3 kmh 30.13 in1020.3 mb 0.00 in0.0 mm 0.00 in0.0 mm 0.01 in0.3 mm
01:02 PM 38.1°F3.4°C 31.2°F-0.4°C 76% 3.0 mph S4.8 kmh S 6.0 mph9.7 kmh 30.14 in1020.7 mb 0.00 in0.0 mm 0.00 in0.0 mm 0.01 in0.3 mm
01:04 PM 38.1°F3.4°C 30.9°F-0.6°C 75% 4.0 mph WNW6.4 kmh WNW 10.0 mph16.1 kmh 30.14 in1020.7 mb 0.00 in0.0 mm 0.00 in0.0 mm 0.01 in0.3 mm
01:06 PM 38.1°F3.4°C 31.2°F-0.4°C 76% 2.0 mph NW3.2 kmh NW 10.0 mph16.1 kmh 30.14 in1020.7 mb 0.00 in0.0 mm 0.00 in0.0 mm 0.01 in0.3 mm
01:08 PM 38.0°F3.3°C 31.1°F-0.5°C 76% 2.0 mph NNW3.2 kmh NNW 10.0 mph16.1 kmh 30.14 in1020.7 mb 0.00 in0.0 mm 0.00 in0.0 mm 0.01 in0.3 mm
01:10 PM 38.0°F3.3°C 31.4°F-0.3°C 77% 3.0 mph NW4.8 kmh NW 10.0 mph16.1 kmh 30.14 in1020.7 mb 0.00 in0.0 mm 0.00 in0.0 mm 0.01 in0.3 mm
01:12 PM 38.0°F3.3°C 31.1°F-0.5°C 76% 4.0 mph W6.4 kmh W 10.0 mph16.1 kmh 30.14 in1020.7 mb 0.00 in0.0 mm 0.00 in0.0 mm 0.01 in0.3 mm
01:14 PM 38.0°F3.3°C 31.1°F-0.5°C 76% 4.0 mph WNW6.4 kmh WNW 10.0 mph16.1 kmh 30.14 in1020.7 mb 0.00 in0.0 mm 0.00 in0.0 mm 0.01 in0.3 mm
01:16 PM 38.0°F3.3°C 30.8°F-0.7°C 75% 3.0 mph NW4.8 kmh NW 10.0 mph16.1 kmh 30.14 in1020.7 mb 0.00 in0.0 mm 0.00 in0.0 mm 0.01 in0.3 mm
01:18 PM 37.9°F3.3°C 31.0°F-0.6°C 76% 3.0 mph W4.8 kmh W 10.0 mph16.1 kmh 30.14 in1020.7 mb 0.00 in0.0 mm 0.00 in0.0 mm 0.01 in0.3 mm
01:20 PM 37.9°F3.3°C 31.0°F-0.6°C 76% 2.0 mph NNW3.2 kmh NNW 10.0 mph16.1 kmh 30.14 in1020.7 mb 0.00 in0.0 mm 0.00 in0.0 mm 0.01 in0.3 mm
01:22 PM 37.9°F3.3°C 30.7°F-0.7°C 75% 3.0 mph WNW4.8 kmh WNW 10.0 mph16.1 kmh 30.14 in1020.7 mb 0.00 in0.0 mm 0.00 in0.0 mm 0.01 in0.3 mm
01:24 PM 37.9°F3.3°C 31.0°F-0.6°C 76% 3.0 mph WNW4.8 kmh WNW 8.0 mph12.9 kmh 30.14 in1020.7 mb 0.00 in0.0 mm 0.00 in0.0 mm 0.01 in0.3 mm
01:26 PM 38.0°F3.3°C 31.1°F-0.5°C 76% 4.0 mph NW6.4 kmh NW 8.0 mph12.9 kmh 30.14 in1020.7 mb 0.00 in0.0 mm 0.00 in0.0 mm 0.01 in0.3 mm
01:28 PM 38.0°F3.3°C 30.8°F-0.7°C 75% 4.0 mph WNW6.4 kmh WNW 8.0 mph12.9 kmh 30.14 in1020.7 mb 0.00 in0.0 mm 0.00 in0.0 mm 0.01 in0.3 mm
01:30 PM 38.0°F3.3°C 30.5°F-0.8°C 74% 4.0 mph W6.4 kmh W 8.0 mph12.9 kmh 30.14 in1020.7 mb 0.00 in0.0 mm 0.00 in0.0 mm 0.01 in0.3 mm
01:32 PM 38.0°F3.3°C 30.5°F-0.8°C 74% 3.0 mph WNW4.8 kmh WNW 8.0 mph12.9 kmh 30.14 in1020.7 mb 0.00 in0.0 mm 0.00 in0.0 mm 0.01 in0.3 mm
01:34 PM 38.0°F3.3°C 30.5°F-0.8°C 74% 2.0 mph NW3.2 kmh NW 8.0 mph12.9 kmh 30.14 in1020.7 mb 0.00 in0.0 mm 0.00 in0.0 mm 0.01 in0.3 mm
01:36 PM 38.1°F3.4°C 30.6°F-0.8°C 74% 4.0 mph WNW6.4 kmh WNW 8.0 mph12.9 kmh 30.14 in1020.7 mb 0.00 in0.0 mm 0.00 in0.0 mm 0.01 in0.3 mm
01:38 PM 38.1°F3.4°C 30.6°F-0.8°C 74% 5.0 mph NW8.0 kmh NW 8.0 mph12.9 kmh 30.14 in1020.7 mb 0.00 in0.0 mm 0.00 in0.0 mm 0.01 in0.3 mm
01:40 PM 38.1°F3.4°C 30.6°F-0.8°C 74% 3.0 mph NE4.8 kmh NE 8.0 mph12.9 kmh 30.14 in1020.7 mb 0.00 in0.0 mm 0.00 in0.0 mm 0.01 in0.3 mm
01:42 PM 38.2°F3.4°C 31.0°F-0.6°C 75% 3.0 mph NW4.8 kmh NW 8.0 mph12.9 kmh 30.14 in1020.7 mb 0.00 in0.0 mm 0.00 in0.0 mm 0.01 in0.3 mm
01:44 PM 38.2°F3.4°C 30.7°F-0.7°C 74% 2.0 mph NW3.2 kmh NW 6.0 mph9.7 kmh 30.14 in1020.7 mb 0.00 in0.0 mm 0.00 in0.0 mm 0.01 in0.3 mm
01:46 PM 38.2°F3.4°C 31.0°F-0.6°C 75% 4.0 mph WNW6.4 kmh WNW 6.0 mph9.7 kmh 30.14 in1020.7 mb 0.00 in0.0 mm 0.00 in0.0 mm 0.01 in0.3 mm
01:48 PM 38.2°F3.4°C 30.7°F-0.7°C 74% 2.0 mph NW3.2 kmh NW 6.0 mph9.7 kmh 30.14 in1020.7 mb 0.00 in0.0 mm 0.00 in0.0 mm 0.01 in0.3 mm
01:50 PM 38.3°F3.5°C 30.8°F-0.7°C 74% 2.0 mph NNW3.2 kmh NNW 6.0 mph9.7 kmh 30.14 in1020.7 mb 0.00 in0.0 mm 0.00 in0.0 mm 0.01 in0.3 mm
01:52 PM 38.2°F3.4°C 31.0°F-0.6°C 75% 1.0 mph W1.6 kmh W 7.0 mph11.3 kmh 30.14 in1020.7 mb 0.00 in0.0 mm 0.00 in0.0 mm 0.01 in0.3 mm
01:54 PM 38.3°F3.5°C 31.1°F-0.5°C 75% 4.0 mph NW6.4 kmh NW 7.0 mph11.3 kmh 30.14 in1020.7 mb 0.00 in0.0 mm 0.00 in0.0 mm 0.01 in0.3 mm
01:56 PM 38.3°F3.5°C 31.1°F-0.5°C 75% 2.0 mph NW3.2 kmh NW 8.0 mph12.9 kmh 30.15 in1021.0 mb 0.00 in0.0 mm 0.00 in0.0 mm 0.01 in0.3 mm
01:58 PM 38.2°F3.4°C 30.7°F-0.7°C 74% 2.0 mph NW3.2 kmh NW 8.0 mph12.9 kmh 30.14 in1020.7 mb 0.00 in0.0 mm 0.00 in0.0 mm 0.01 in0.3 mm
02:00 PM 38.2°F3.4°C 31.0°F-0.6°C 75% 5.0 mph WNW8.0 kmh WNW 8.0 mph12.9 kmh 30.14 in1020.7 mb 0.00 in0.0 mm 0.00 in0.0 mm 0.01 in0.3 mm
02:02 PM 38.2°F3.4°C 30.7°F-0.7°C 74% 3.0 mph WNW4.8 kmh WNW 8.0 mph12.9 kmh 30.14 in1020.7 mb 0.00 in0.0 mm 0.00 in0.0 mm 0.01 in0.3 mm
02:04 PM 38.2°F3.4°C 31.0°F-0.6°C 75% 1.0 mph W1.6 kmh W 8.0 mph12.9 kmh 30.15 in1021.0 mb 0.00 in0.0 mm 0.00 in0.0 mm 0.01 in0.3 mm
02:06 PM 38.2°F3.4°C 31.3°F-0.4°C 76% 2.0 mph NW3.2 kmh NW 8.0 mph12.9 kmh 30.15 in1021.0 mb 0.00 in0.0 mm 0.00 in0.0 mm 0.01 in0.3 mm
02:08 PM 38.2°F3.4°C 31.3°F-0.4°C 76% 2.0 mph WNW3.2 kmh WNW 8.0 mph12.9 kmh 30.15 in1021.0 mb 0.00 in0.0 mm 0.00 in0.0 mm 0.01 in0.3 mm
02:10 PM 38.2°F3.4°C 31.0°F-0.6°C 75% 2.0 mph WSW3.2 kmh WSW 8.0 mph12.9 kmh 30.15 in1021.0 mb 0.00 in0.0 mm 0.00 in0.0 mm 0.01 in0.3 mm
02:12 PM 38.2°F3.4°C 31.0°F-0.6°C 75% Calm Calm 8.0 mph12.9 kmh 30.15 in1021.0 mb 0.00 in0.0 mm 0.00 in0.0 mm 0.01 in0.3 mm
02:14 PM 38.2°F3.4°C 31.0°F-0.6°C 75% 2.0 mph WNW3.2 kmh WNW 9.0 mph14.5 kmh 30.15 in1021.0 mb 0.00 in0.0 mm 0.00 in0.0 mm 0.01 in0.3 mm
02:16 PM 38.2°F3.4°C 30.7°F-0.7°C 74% 3.0 mph W4.8 kmh W 9.0 mph14.5 kmh 30.15 in1021.0 mb 0.00 in0.0 mm 0.00 in0.0 mm 0.01 in0.3 mm
02:18 PM 38.2°F3.4°C 30.7°F-0.7°C 74% 2.0 mph WNW3.2 kmh WNW 9.0 mph14.5 kmh 30.15 in1021.0 mb 0.00 in0.0 mm 0.00 in0.0 mm 0.01 in0.3 mm
02:20 PM 38.2°F3.4°C 30.7°F-0.7°C 74% 3.0 mph WNW4.8 kmh WNW 9.0 mph14.5 kmh 30.15 in1021.0 mb 0.00 in0.0 mm 0.00 in0.0 mm 0.01 in0.3 mm
02:22 PM 38.1°F3.4°C 30.6°F-0.8°C 74% 3.0 mph WNW4.8 kmh WNW 9.0 mph14.5 kmh 30.15 in1021.0 mb 0.00 in0.0 mm 0.00 in0.0 mm 0.01 in0.3 mm
02:24 PM 38.1°F3.4°C 30.6°F-0.8°C 74% 3.0 mph NW4.8 kmh NW 9.0 mph14.5 kmh 30.15 in1021.0 mb 0.00 in0.0 mm 0.00 in0.0 mm 0.01 in0.3 mm
02:26 PM 38.1°F3.4°C 30.6°F-0.8°C 74% 3.0 mph WNW4.8 kmh WNW 9.0 mph14.5 kmh 30.15 in1021.0 mb 0.00 in0.0 mm 0.00 in0.0 mm 0.01 in0.3 mm
02:28 PM 38.1°F3.4°C 30.6°F-0.8°C 74% 3.0 mph NW4.8 kmh NW 9.0 mph14.5 kmh 30.15 in1021.0 mb 0.00 in0.0 mm 0.00 in0.0 mm 0.01 in0.3 mm
02:30 PM 38.1°F3.4°C 30.9°F-0.6°C 75% 1.0 mph WNW1.6 kmh WNW 9.0 mph14.5 kmh 30.15 in1021.0 mb 0.00 in0.0 mm 0.00 in0.0 mm 0.01 in0.3 mm
02:32 PM 38.1°F3.4°C 30.9°F-0.6°C 75% 4.0 mph NW6.4 kmh NW 9.0 mph14.5 kmh 30.15 in1021.0 mb 0.00 in0.0 mm 0.00 in0.0 mm 0.01 in0.3 mm
02:34 PM 38.1°F3.4°C 30.9°F-0.6°C 75% 3.0 mph NW4.8 kmh NW 9.0 mph14.5 kmh 30.15 in1021.0 mb 0.00 in0.0 mm 0.00 in0.0 mm 0.01 in0.3 mm
02:36 PM 38.1°F3.4°C 30.6°F-0.8°C 74% 3.0 mph NNW4.8 kmh NNW 9.0 mph14.5 kmh 30.15 in1021.0 mb 0.00 in0.0 mm 0.00 in0.0 mm 0.01 in0.3 mm
02:38 PM 38.0°F3.3°C 30.8°F-0.7°C 75% 2.0 mph NW3.2 kmh NW 9.0 mph14.5 kmh 30.15 in1021.0 mb 0.00 in0.0 mm 0.00 in0.0 mm 0.01 in0.3 mm
02:40 PM 38.0°F3.3°C 30.8°F-0.7°C 75% 3.0 mph NW4.8 kmh NW 9.0 mph14.5 kmh 30.16 in1021.3 mb 0.00 in0.0 mm 0.00 in0.0 mm 0.01 in0.3 mm
02:42 PM 38.0°F3.3°C 30.8°F-0.7°C 75% 3.0 mph WNW4.8 kmh WNW 9.0 mph14.5 kmh 30.15 in1021.0 mb 0.00 in0.0 mm 0.00 in0.0 mm 0.01 in0.3 mm
02:44 PM 38.0°F3.3°C 30.8°F-0.7°C 75% 5.0 mph NW8.0 kmh NW 9.0 mph14.5 kmh 30.16 in1021.3 mb 0.00 in0.0 mm 0.00 in0.0 mm 0.01 in0.3 mm
02:46 PM 38.0°F3.3°C 30.5°F-0.8°C 74% 2.0 mph NNW3.2 kmh NNW 9.0 mph14.5 kmh 30.16 in1021.3 mb 0.00 in0.0 mm 0.00 in0.0 mm 0.01 in0.3 mm
02:48 PM 38.0°F3.3°C 30.8°F-0.7°C 75% 6.0 mph NNW9.7 kmh NNW 9.0 mph14.5 kmh 30.16 in1021.3 mb 0.00 in0.0 mm 0.00 in0.0 mm 0.01 in0.3 mm
02:50 PM 38.0°F3.3°C 30.8°F-0.7°C 75% 3.0 mph NW4.8 kmh NW 9.0 mph14.5 kmh 30.15 in1021.0 mb 0.00 in0.0 mm 0.00 in0.0 mm 0.01 in0.3 mm
02:52 PM 38.0°F3.3°C 31.1°F-0.5°C 76% 2.0 mph NW3.2 kmh NW 9.0 mph14.5 kmh 30.16 in1021.3 mb 0.00 in0.0 mm 0.00 in0.0 mm 0.01 in0.3 mm
02:54 PM 38.0°F3.3°C 30.8°F-0.7°C 75% 4.0 mph NW6.4 kmh NW 9.0 mph14.5 kmh 30.16 in1021.3 mb 0.00 in0.0 mm 0.00 in0.0 mm 0.01 in0.3 mm
02:56 PM 38.0°F3.3°C 30.8°F-0.7°C 75% 3.0 mph NW4.8 kmh NW 9.0 mph14.5 kmh 30.16 in1021.3 mb 0.00 in0.0 mm 0.00 in0.0 mm 0.01 in0.3 mm
02:58 PM 38.0°F3.3°C 30.8°F-0.7°C 75% 3.0 mph W4.8 kmh W 9.0 mph14.5 kmh 30.16 in1021.3 mb 0.00 in0.0 mm 0.00 in0.0 mm 0.01 in0.3 mm
03:00 PM 38.1°F3.4°C 30.9°F-0.6°C 75% 3.0 mph WNW4.8 kmh WNW 9.0 mph14.5 kmh 30.16 in1021.3 mb 0.00 in0.0 mm 0.00 in0.0 mm 0.01 in0.3 mm
03:02 PM 38.1°F3.4°C 30.9°F-0.6°C 75% 3.0 mph WNW4.8 kmh WNW 9.0 mph14.5 kmh 30.16 in1021.3 mb 0.00 in0.0 mm 0.00 in0.0 mm 0.01 in0.3 mm
03:04 PM 38.1°F3.4°C 30.6°F-0.8°C 74% 3.0 mph NW4.8 kmh NW 9.0 mph14.5 kmh 30.16 in1021.3 mb 0.00 in0.0 mm 0.00 in0.0 mm 0.01 in0.3 mm
03:06 PM 38.1°F3.4°C 30.9°F-0.6°C 75% 2.0 mph WNW3.2 kmh WNW 9.0 mph14.5 kmh 30.16 in1021.3 mb 0.00 in0.0 mm 0.00 in0.0 mm 0.01 in0.3 mm
03:08 PM 38.1°F3.4°C 30.9°F-0.6°C 75% 2.0 mph WNW3.2 kmh WNW 8.0 mph12.9 kmh 30.16 in1021.3 mb 0.00 in0.0 mm 0.00 in0.0 mm 0.01 in0.3 mm
03:10 PM 38.1°F3.4°C 30.6°F-0.8°C 74% 3.0 mph NW4.8 kmh NW 8.0 mph12.9 kmh 30.16 in1021.3 mb 0.00 in0.0 mm 0.00 in0.0 mm 0.01 in0.3 mm
03:12 PM 38.1°F3.4°C 30.9°F-0.6°C 75% 5.0 mph NW8.0 kmh NW 8.0 mph12.9 kmh 30.16 in1021.3 mb 0.00 in0.0 mm 0.00 in0.0 mm 0.01 in0.3 mm
03:14 PM 38.1°F3.4°C 30.6°F-0.8°C 74% 3.0 mph WNW4.8 kmh WNW 8.0 mph12.9 kmh 30.16 in1021.3 mb 0.00 in0.0 mm 0.00 in0.0 mm 0.01 in0.3 mm
03:16 PM 38.1°F3.4°C 30.6°F-0.8°C 74% 3.0 mph WNW4.8 kmh WNW 8.0 mph12.9 kmh 30.16 in1021.3 mb 0.00 in0.0 mm 0.00 in0.0 mm 0.01 in0.3 mm
03:18 PM 38.1°F3.4°C 30.6°F-0.8°C 74% 2.0 mph NW3.2 kmh NW 8.0 mph12.9 kmh 30.16 in1021.3 mb 0.00 in0.0 mm 0.00 in0.0 mm 0.01 in0.3 mm
03:20 PM 38.2°F3.4°C 30.7°F-0.7°C 74% 2.0 mph WNW3.2 kmh WNW 8.0 mph12.9 kmh 30.17 in1021.7 mb 0.00 in0.0 mm 0.00 in0.0 mm 0.01 in0.3 mm
03:22 PM 38.1°F3.4°C 30.6°F-0.8°C 74% 3.0 mph WNW4.8 kmh WNW 8.0 mph12.9 kmh 30.17 in1021.7 mb 0.00 in0.0 mm 0.00 in0.0 mm 0.01 in0.3 mm
03:24 PM 38.1°F3.4°C 30.2°F-1.0°C 73% 2.0 mph NW3.2 kmh NW 8.0 mph12.9 kmh 30.17 in1021.7 mb 0.00 in0.0 mm 0.00 in0.0 mm 0.01 in0.3 mm
03:26 PM 38.1°F3.4°C 30.6°F-0.8°C 74% 2.0 mph WSW3.2 kmh WSW 8.0 mph12.9 kmh 30.17 in1021.7 mb 0.00 in0.0 mm 0.00 in0.0 mm 0.01 in0.3 mm
03:28 PM 38.0°F3.3°C 30.8°F-0.7°C 75% 4.0 mph W6.4 kmh W 8.0 mph12.9 kmh 30.17 in1021.7 mb 0.00 in0.0 mm 0.00 in0.0 mm 0.01 in0.3 mm
03:30 PM 38.0°F3.3°C 30.5°F-0.8°C 74% 4.0 mph WNW6.4 kmh WNW 8.0 mph12.9 kmh 30.17 in1021.7 mb 0.00 in0.0 mm 0.00 in0.0 mm 0.01 in0.3 mm
03:32 PM 38.0°F3.3°C 30.5°F-0.8°C 74% 3.0 mph WNW4.8 kmh WNW 8.0 mph12.9 kmh 30.17 in1021.7 mb 0.00 in0.0 mm 0.00 in0.0 mm 0.01 in0.3 mm
03:34 PM 38.0°F3.3°C 30.5°F-0.8°C 74% 3.0 mph WNW4.8 kmh WNW 8.0 mph12.9 kmh 30.17 in1021.7 mb 0.00 in0.0 mm 0.00 in0.0 mm 0.01 in0.3 mm
03:36 PM 37.9°F3.3°C 30.4°F-0.9°C 74% 3.0 mph WNW4.8 kmh WNW 8.0 mph12.9 kmh 30.17 in1021.7 mb 0.00 in0.0 mm 0.00 in0.0 mm 0.01 in0.3 mm
03:38 PM 38.0°F3.3°C 30.5°F-0.8°C 74% 4.0 mph WNW6.4 kmh WNW 8.0 mph12.9 kmh 30.17 in1021.7 mb 0.00 in0.0 mm 0.00 in0.0 mm 0.01 in0.3 mm
03:40 PM 38.0°F3.3°C 30.5°F-0.8°C 74% 2.0 mph NW3.2 kmh NW 7.0 mph11.3 kmh 30.17 in1021.7 mb 0.00 in0.0 mm 0.00 in0.0 mm 0.01 in0.3 mm
03:42 PM 38.0°F3.3°C 30.8°F-0.7°C 75% 3.0 mph WNW4.8 kmh WNW 7.0 mph11.3 kmh 30.17 in1021.7 mb 0.00 in0.0 mm 0.00 in0.0 mm 0.01 in0.3 mm
03:44 PM 38.0°F3.3°C 30.8°F-0.7°C 75% 2.0 mph NW3.2 kmh NW 7.0 mph11.3 kmh 30.17 in1021.7 mb 0.00 in0.0 mm 0.00 in0.0 mm 0.01 in0.3 mm
03:46 PM 37.9°F3.3°C 30.4°F-0.9°C 74% 2.0 mph WNW3.2 kmh WNW 7.0 mph11.3 kmh 30.18 in1022.0 mb 0.00 in0.0 mm 0.00 in0.0 mm 0.01 in0.3 mm
03:48 PM 38.0°F3.3°C 30.8°F-0.7°C 75% 3.0 mph WNW4.8 kmh WNW 7.0 mph11.3 kmh 30.18 in1022.0 mb 0.00 in0.0 mm 0.00 in0.0 mm 0.01 in0.3 mm
03:50 PM 38.0°F3.3°C 30.8°F-0.7°C 75% 3.0 mph NW4.8 kmh NW 5.0 mph8.0 kmh 30.18 in1022.0 mb 0.00 in0.0 mm 0.00 in0.0 mm 0.01 in0.3 mm
03:52 PM 37.9°F3.3°C 30.7°F-0.7°C 75% 3.0 mph NW4.8 kmh NW 5.0 mph8.0 kmh 30.18 in1022.0 mb 0.00 in0.0 mm 0.00 in0.0 mm 0.01 in0.3 mm
03:54 PM 37.9°F3.3°C 30.7°F-0.7°C 75% 4.0 mph W6.4 kmh W 5.0 mph8.0 kmh 30.18 in1022.0 mb 0.00 in0.0 mm 0.00 in0.0 mm 0.01 in0.3 mm
03:56 PM 37.9°F3.3°C 31.0°F-0.6°C 76% 3.0 mph WSW4.8 kmh WSW 5.0 mph8.0 kmh 30.18 in1022.0 mb 0.00 in0.0 mm 0.00 in0.0 mm 0.01 in0.3 mm
03:58 PM 38.0°F3.3°C 30.8°F-0.7°C 75% 2.0 mph W3.2 kmh W 5.0 mph8.0 kmh 30.18 in1022.0 mb 0.00 in0.0 mm 0.00 in0.0 mm 0.01 in0.3 mm
04:00 PM 37.9°F3.3°C 30.7°F-0.7°C 75% 2.0 mph W3.2 kmh W 5.0 mph8.0 kmh 30.18 in1022.0 mb 0.00 in0.0 mm 0.00 in0.0 mm 0.01 in0.3 mm
04:02 PM 37.9°F3.3°C 31.0°F-0.6°C 76% 2.0 mph WNW3.2 kmh WNW 5.0 mph8.0 kmh 30.18 in1022.0 mb 0.00 in0.0 mm 0.00 in0.0 mm 0.01 in0.3 mm
04:04 PM 37.9°F3.3°C 30.7°F-0.7°C 75% 3.0 mph NW4.8 kmh NW 5.0 mph8.0 kmh 30.18 in1022.0 mb 0.00 in0.0 mm 0.00 in0.0 mm 0.01 in0.3 mm
04:06 PM 37.9°F3.3°C 31.0°F-0.6°C 76% 3.0 mph NW4.8 kmh NW 5.0 mph8.0 kmh 30.19 in1022.4 mb 0.00 in0.0 mm 0.00 in0.0 mm 0.01 in0.3 mm
04:08 PM 37.9°F3.3°C 30.7°F-0.7°C 75% 1.0 mph NW1.6 kmh NW 7.0 mph11.3 kmh 30.19 in1022.4 mb 0.00 in0.0 mm 0.00 in0.0 mm 0.01 in0.3 mm
04:10 PM 37.9°F3.3°C 30.7°F-0.7°C 75% 3.0 mph NW4.8 kmh NW 7.0 mph11.3 kmh 30.18 in1022.0 mb 0.00 in0.0 mm 0.00 in0.0 mm 0.01 in0.3 mm
04:12 PM 37.9°F3.3°C 30.7°F-0.7°C 75% 3.0 mph NW4.8 kmh NW 7.0 mph11.3 kmh 30.18 in1022.0 mb 0.00 in0.0 mm 0.00 in0.0 mm 0.01 in0.3 mm
04:14 PM 37.9°F3.3°C 30.7°F-0.7°C 75% 2.0 mph NW3.2 kmh NW 7.0 mph11.3 kmh 30.18 in1022.0 mb 0.00 in0.0 mm 0.00 in0.0 mm 0.01 in0.3 mm
04:16 PM 37.9°F3.3°C 30.7°F-0.7°C 75% Calm Calm 7.0 mph11.3 kmh 30.18 in1022.0 mb 0.00 in0.0 mm 0.00 in0.0 mm 0.01 in0.3 mm
04:18 PM 37.9°F3.3°C 30.7°F-0.7°C 75% 2.0 mph NW3.2 kmh NW 7.0 mph11.3 kmh 30.18 in1022.0 mb 0.00 in0.0 mm 0.00 in0.0 mm 0.01 in0.3 mm
04:20 PM 37.9°F3.3°C 31.0°F-0.6°C 76% 3.0 mph WNW4.8 kmh WNW 7.0 mph11.3 kmh 30.19 in1022.4 mb 0.00 in0.0 mm 0.00 in0.0 mm 0.01 in0.3 mm
04:22 PM 37.9°F3.3°C 31.0°F-0.6°C 76% 2.0 mph WNW3.2 kmh WNW 7.0 mph11.3 kmh 30.19 in1022.4 mb 0.00 in0.0 mm 0.00 in0.0 mm 0.01 in0.3 mm
04:24 PM 37.9°F3.3°C 31.0°F-0.6°C 76% 2.0 mph WSW3.2 kmh WSW 7.0 mph11.3 kmh 30.19 in1022.4 mb 0.00 in0.0 mm 0.00 in0.0 mm 0.01 in0.3 mm
04:26 PM 37.9°F3.3°C 31.0°F-0.6°C 76% 2.0 mph NW3.2 kmh NW 7.0 mph11.3 kmh 30.18 in1022.0 mb 0.00 in0.0 mm 0.00 in0.0 mm 0.01 in0.3 mm
04:28 PM 37.9°F3.3°C 31.0°F-0.6°C 76% 3.0 mph WNW4.8 kmh WNW 7.0 mph11.3 kmh 30.18 in1022.0 mb 0.00 in0.0 mm 0.00 in0.0 mm 0.01 in0.3 mm
04:30 PM 37.9°F3.3°C 30.7°F-0.7°C 75% 1.0 mph NW1.6 kmh NW 7.0 mph11.3 kmh 30.19 in1022.4 mb 0.00 in0.0 mm 0.00 in0.0 mm 0.01 in0.3 mm
04:32 PM 37.9°F3.3°C 31.0°F-0.6°C 76% 2.0 mph NW3.2 kmh NW 7.0 mph11.3 kmh 30.19 in1022.4 mb 0.00 in0.0 mm 0.00 in0.0 mm 0.01 in0.3 mm
04:34 PM 37.9°F3.3°C 31.0°F-0.6°C 76% 2.0 mph W3.2 kmh W 7.0 mph11.3 kmh 30.19 in1022.4 mb 0.00 in0.0 mm 0.00 in0.0 mm 0.01 in0.3 mm
04:36 PM 37.9°F3.3°C 30.7°F-0.7°C 75% 2.0 mph WNW3.2 kmh WNW 7.0 mph11.3 kmh 30.19 in1022.4 mb 0.00 in0.0 mm 0.00 in0.0 mm 0.01 in0.3 mm
04:38 PM 37.9°F3.3°C 31.0°F-0.6°C 76% 3.0 mph WNW4.8 kmh WNW 7.0 mph11.3 kmh 30.19 in1022.4 mb 0.00 in0.0 mm 0.00 in0.0 mm 0.01 in0.3 mm
04:40 PM 37.9°F3.3°C 31.0°F-0.6°C 76% Calm Calm 7.0 mph11.3 kmh 30.19 in1022.4 mb 0.00 in0.0 mm 0.00 in0.0 mm 0.01 in0.3 mm
04:42 PM 37.9°F3.3°C 31.0°F-0.6°C 76% 1.0 mph W1.6 kmh W 7.0 mph11.3 kmh 30.19 in1022.4 mb 0.00 in0.0 mm 0.00 in0.0 mm 0.01 in0.3 mm
04:44 PM 37.9°F3.3°C 31.0°F-0.6°C 76% 2.0 mph W3.2 kmh W 7.0 mph11.3 kmh 30.19 in1022.4 mb 0.00 in0.0 mm 0.00 in0.0 mm 0.01 in0.3 mm
04:46 PM 37.9°F3.3°C 31.0°F-0.6°C 76% Calm Calm 4.0 mph6.4 kmh 30.19 in1022.4 mb 0.00 in0.0 mm 0.00 in0.0 mm 0.01 in0.3 mm
04:48 PM 37.9°F3.3°C 31.3°F-0.4°C 77% 3.0 mph W4.8 kmh W 6.0 mph9.7 kmh 30.19 in1022.4 mb 0.00 in0.0 mm 0.00 in0.0 mm 0.01 in0.3 mm
04:50 PM 37.9°F3.3°C 31.0°F-0.6°C 76% 2.0 mph W3.2 kmh W 6.0 mph9.7 kmh 30.19 in1022.4 mb 0.00 in0.0 mm 0.00 in0.0 mm 0.01 in0.3 mm
04:52 PM 37.9°F3.3°C 31.0°F-0.6°C 76% Calm Calm 6.0 mph9.7 kmh 30.19 in1022.4 mb 0.00 in0.0 mm 0.00 in0.0 mm 0.01 in0.3 mm
04:54 PM 37.9°F3.3°C 31.0°F-0.6°C 76% 1.0 mph W1.6 kmh W 6.0 mph9.7 kmh 30.19 in1022.4 mb 0.00 in0.0 mm 0.00 in0.0 mm 0.01 in0.3 mm
04:56 PM 37.9°F3.3°C 31.0°F-0.6°C 76% 1.0 mph WNW1.6 kmh WNW 6.0 mph9.7 kmh 30.19 in1022.4 mb 0.00 in0.0 mm 0.00 in0.0 mm 0.01 in0.3 mm
04:58 PM 37.9°F3.3°C 31.0°F-0.6°C 76% 2.0 mph NW3.2 kmh NW 6.0 mph9.7 kmh 30.19 in1022.4 mb 0.00 in0.0 mm 0.00 in0.0 mm 0.01 in0.3 mm
05:00 PM 37.9°F3.3°C 31.0°F-0.6°C 76% 2.0 mph WNW3.2 kmh WNW 6.0 mph9.7 kmh 30.19 in1022.4 mb 0.00 in0.0 mm 0.00 in0.0 mm 0.01 in0.3 mm
05:02 PM 37.9°F3.3°C 31.0°F-0.6°C 76% 1.0 mph WNW1.6 kmh WNW 6.0 mph9.7 kmh 30.19 in1022.4 mb 0.00 in0.0 mm 0.00 in0.0 mm 0.01 in0.3 mm
05:04 PM 37.9°F3.3°C 31.0°F-0.6°C 76% 2.0 mph WNW3.2 kmh WNW 6.0 mph9.7 kmh 30.19 in1022.4 mb 0.00 in0.0 mm 0.00 in0.0 mm 0.01 in0.3 mm
05:06 PM 37.9°F3.3°C 31.0°F-0.6°C 76% 2.0 mph W3.2 kmh W 6.0 mph9.7 kmh 30.20 in1022.7 mb 0.00 in0.0 mm 0.00 in0.0 mm 0.01 in0.3 mm
05:10 PM 37.9°F3.3°C 31.0°F-0.6°C 76% 1.0 mph WNW1.6 kmh WNW 6.0 mph9.7 kmh 30.20 in1022.7 mb 0.00 in0.0 mm 0.00 in0.0 mm 0.01 in0.3 mm
05:12 PM 37.9°F3.3°C 31.0°F-0.6°C 76% 2.0 mph WNW3.2 kmh WNW 6.0 mph9.7 kmh 30.19 in1022.4 mb 0.00 in0.0 mm 0.00 in0.0 mm 0.01 in0.3 mm
05:14 PM 37.9°F3.3°C 31.0°F-0.6°C 76% 2.0 mph W3.2 kmh W 6.0 mph9.7 kmh 30.20 in1022.7 mb 0.00 in0.0 mm 0.00 in0.0 mm 0.01 in0.3 mm
05:16 PM 37.9°F3.3°C 31.0°F-0.6°C 76% 2.0 mph W3.2 kmh W 6.0 mph9.7 kmh 30.20 in1022.7 mb 0.00 in0.0 mm 0.00 in0.0 mm 0.01 in0.3 mm
05:18 PM 37.9°F3.3°C 31.0°F-0.6°C 76% Calm Calm 4.0 mph6.4 kmh 30.20 in1022.7 mb 0.00 in0.0 mm 0.00 in0.0 mm 0.01 in0.3 mm
05:20 PM 37.8°F3.2°C 31.2°F-0.4°C 77% Calm Calm 4.0 mph6.4 kmh 30.20 in1022.7 mb 0.00 in0.0 mm 0.00 in0.0 mm 0.01 in0.3 mm
05:22 PM 37.9°F3.3°C 31.0°F-0.6°C 76% 1.0 mph W1.6 kmh W 4.0 mph6.4 kmh 30.20 in1022.7 mb 0.00 in0.0 mm 0.00 in0.0 mm 0.01 in0.3 mm
05:24 PM 37.9°F3.3°C 31.0°F-0.6°C 76% 1.0 mph WSW1.6 kmh WSW 4.0 mph6.4 kmh 30.20 in1022.7 mb 0.00 in0.0 mm 0.00 in0.0 mm 0.01 in0.3 mm
05:26 PM 37.9°F3.3°C 31.3°F-0.4°C 77% 1.0 mph WSW1.6 kmh WSW 4.0 mph6.4 kmh 30.20 in1022.7 mb 0.00 in0.0 mm 0.00 in0.0 mm 0.01 in0.3 mm
05:28 PM 37.9°F3.3°C 31.3°F-0.4°C 77% 1.0 mph WSW1.6 kmh WSW 2.0 mph3.2 kmh 30.20 in1022.7 mb 0.00 in0.0 mm 0.00 in0.0 mm 0.01 in0.3 mm
05:30 PM 37.8°F3.2°C 30.9°F-0.6°C 76% 1.0 mph WSW1.6 kmh WSW 2.0 mph3.2 kmh 30.20 in1022.7 mb 0.00 in0.0 mm 0.00 in0.0 mm 0.01 in0.3 mm
05:32 PM 37.8°F3.2°C 31.2°F-0.4°C 77% 2.0 mph W3.2 kmh W 2.0 mph3.2 kmh 30.20 in1022.7 mb 0.00 in0.0 mm 0.00 in0.0 mm 0.01 in0.3 mm
05:34 PM 37.8°F3.2°C 31.2°F-0.4°C 77% 2.0 mph W3.2 kmh W 2.0 mph3.2 kmh 30.20 in1022.7 mb 0.00 in0.0 mm 0.00 in0.0 mm 0.01 in0.3 mm
05:36 PM 37.8°F3.2°C 31.2°F-0.4°C 77% 1.0 mph W1.6 kmh W 2.0 mph3.2 kmh 30.20 in1022.7 mb 0.00 in0.0 mm 0.00 in0.0 mm 0.01 in0.3 mm
05:38 PM 37.8°F3.2°C 31.2°F-0.4°C 77% 1.0 mph W1.6 kmh W 2.0 mph3.2 kmh 30.20 in1022.7 mb 0.00 in0.0 mm 0.00 in0.0 mm 0.01 in0.3 mm
05:40 PM 37.8°F3.2°C 31.2°F-0.4°C 77% 1.0 mph WSW1.6 kmh WSW 3.0 mph4.8 kmh 30.20 in1022.7 mb 0.00 in0.0 mm 0.00 in0.0 mm 0.01 in0.3 mm
05:42 PM 37.8°F3.2°C 31.2°F-0.4°C 77% 2.0 mph W3.2 kmh W 3.0 mph4.8 kmh 30.20 in1022.7 mb 0.00 in0.0 mm 0.00 in0.0 mm 0.01 in0.3 mm
05:44 PM 37.8°F3.2°C 30.9°F-0.6°C 76% 1.0 mph W1.6 kmh W 3.0 mph4.8 kmh 30.20 in1022.7 mb 0.00 in0.0 mm 0.00 in0.0 mm 0.01 in0.3 mm
05:46 PM 37.8°F3.2°C 30.9°F-0.6°C 76% 1.0 mph WNW1.6 kmh WNW 4.0 mph6.4 kmh 30.20 in1022.7 mb 0.00 in0.0 mm 0.00 in0.0 mm 0.01 in0.3 mm
05:48 PM 37.8°F3.2°C 30.9°F-0.6°C 76% 1.0 mph WNW1.6 kmh WNW 4.0 mph6.4 kmh 30.20 in1022.7 mb 0.00 in0.0 mm 0.00 in0.0 mm 0.01 in0.3 mm
05:50 PM 37.8°F3.2°C 31.2°F-0.4°C 77% Calm Calm 4.0 mph6.4 kmh 30.20 in1022.7 mb 0.00 in0.0 mm 0.00 in0.0 mm 0.01 in0.3 mm
05:52 PM 37.8°F3.2°C 31.2°F-0.4°C 77% 1.0 mph WNW1.6 kmh WNW 4.0 mph6.4 kmh 30.20 in1022.7 mb 0.00 in0.0 mm 0.00 in0.0 mm 0.01 in0.3 mm
05:54 PM 37.8°F3.2°C 31.2°F-0.4°C 77% Calm Calm 4.0 mph6.4 kmh 30.21 in1023.0 mb 0.00 in0.0 mm 0.00 in0.0 mm 0.01 in0.3 mm
05:56 PM 37.8°F3.2°C 31.2°F-0.4°C 77% 2.0 mph WNW3.2 kmh WNW 4.0 mph6.4 kmh 30.21 in1023.0 mb 0.00 in0.0 mm 0.00 in0.0 mm 0.01 in0.3 mm
05:58 PM 37.8°F3.2°C 30.9°F-0.6°C 76% 1.0 mph WNW1.6 kmh WNW 4.0 mph6.4 kmh 30.21 in1023.0 mb 0.00 in0.0 mm 0.00 in0.0 mm 0.01 in0.3 mm
06:00 PM 37.8°F3.2°C 30.9°F-0.6°C 76% 2.0 mph SE3.2 kmh SE 4.0 mph6.4 kmh 30.21 in1023.0 mb 0.00 in0.0 mm 0.00 in0.0 mm 0.01 in0.3 mm
06:02 PM 37.8°F3.2°C 31.2°F-0.4°C 77% 1.0 mph S1.6 kmh S 4.0 mph6.4 kmh 30.21 in1023.0 mb 0.00 in0.0 mm 0.00 in0.0 mm 0.01 in0.3 mm
06:04 PM 37.8°F3.2°C 31.6°F-0.2°C 78% Calm Calm 4.0 mph6.4 kmh 30.21 in1023.0 mb 0.00 in0.0 mm 0.00 in0.0 mm 0.01 in0.3 mm
06:06 PM 37.8°F3.2°C 31.2°F-0.4°C 77% 1.0 mph WNW1.6 kmh WNW 3.0 mph4.8 kmh 30.21 in1023.0 mb 0.00 in0.0 mm 0.00 in0.0 mm 0.01 in0.3 mm
06:08 PM 37.8°F3.2°C 31.6°F-0.2°C 78% Calm Calm 3.0 mph4.8 kmh 30.21 in1023.0 mb 0.00 in0.0 mm 0.00 in0.0 mm 0.01 in0.3 mm
06:10 PM 37.8°F3.2°C 31.2°F-0.4°C 77% 1.0 mph WSW1.6 kmh WSW 3.0 mph4.8 kmh 30.21 in1023.0 mb 0.00 in0.0 mm 0.00 in0.0 mm 0.01 in0.3 mm
06:12 PM 37.8°F3.2°C 31.6°F-0.2°C 78% 1.0 mph WSW1.6 kmh WSW 3.0 mph4.8 kmh 30.21 in1023.0 mb 0.00 in0.0 mm 0.00 in0.0 mm 0.01 in0.3 mm
06:14 PM 37.8°F3.2°C 31.6°F-0.2°C 78% Calm Calm 3.0 mph4.8 kmh 30.21 in1023.0 mb 0.00 in0.0 mm 0.00 in0.0 mm 0.01 in0.3 mm
06:16 PM 37.8°F3.2°C 31.2°F-0.4°C 77% 1.0 mph W1.6 kmh W 2.0 mph3.2 kmh 30.21 in1023.0 mb 0.00 in0.0 mm 0.00 in0.0 mm 0.01 in0.3 mm
06:18 PM 37.8°F3.2°C 31.2°F-0.4°C 77% 2.0 mph WNW3.2 kmh WNW 2.0 mph3.2 kmh 30.21 in1023.0 mb 0.00 in0.0 mm 0.00 in0.0 mm 0.01 in0.3 mm
06:20 PM 37.8°F3.2°C 31.2°F-0.4°C 77% 2.0 mph W3.2 kmh W 3.0 mph4.8 kmh 30.21 in1023.0 mb 0.00 in0.0 mm 0.00 in0.0 mm 0.01 in0.3 mm
06:22 PM 37.8°F3.2°C 31.2°F-0.4°C 77% 1.0 mph W1.6 kmh W 3.0 mph4.8 kmh 30.22 in1023.4 mb 0.00 in0.0 mm 0.00 in0.0 mm 0.01 in0.3 mm
06:24 PM 37.8°F3.2°C 31.2°F-0.4°C 77% 1.0 mph W1.6 kmh W 3.0 mph4.8 kmh 30.22 in1023.4 mb 0.00 in0.0 mm 0.00 in0.0 mm 0.01 in0.3 mm
06:26 PM 37.8°F3.2°C 31.2°F-0.4°C 77% 1.0 mph W1.6 kmh W 3.0 mph4.8 kmh 30.22 in1023.4 mb 0.00 in0.0 mm 0.00 in0.0 mm 0.01 in0.3 mm
06:28 PM 37.8°F3.2°C 31.2°F-0.4°C 77% Calm Calm 3.0 mph4.8 kmh 30.22 in1023.4 mb 0.00 in0.0 mm 0.00 in0.0 mm 0.01 in0.3 mm
06:30 PM 37.8°F3.2°C 31.6°F-0.2°C 78% Calm Calm 3.0 mph4.8 kmh 30.22 in1023.4 mb 0.00 in0.0 mm 0.00 in0.0 mm 0.01 in0.3 mm
06:32 PM 37.9°F3.3°C 31.7°F-0.2°C 78% 1.0 mph W1.6 kmh W 3.0 mph4.8 kmh 30.22 in1023.4 mb 0.00 in0.0 mm 0.00 in0.0 mm 0.01 in0.3 mm
06:34 PM 37.9°F3.3°C 31.7°F-0.2°C 78% 3.0 mph W4.8 kmh W 3.0 mph4.8 kmh 30.22 in1023.4 mb 0.00 in0.0 mm 0.00 in0.0 mm 0.01 in0.3 mm
06:36 PM 37.8°F3.2°C 31.2°F-0.4°C 77% 2.0 mph NW3.2 kmh NW 3.0 mph4.8 kmh 30.22 in1023.4 mb 0.00 in0.0 mm 0.00 in0.0 mm 0.01 in0.3 mm
06:38 PM 37.9°F3.3°C 31.3°F-0.4°C 77% 2.0 mph NW3.2 kmh NW 3.0 mph4.8 kmh 30.22 in1023.4 mb 0.00 in0.0 mm 0.00 in0.0 mm 0.01 in0.3 mm
06:40 PM 37.9°F3.3°C 31.3°F-0.4°C 77% 2.0 mph NW3.2 kmh NW 3.0 mph4.8 kmh 30.22 in1023.4 mb 0.00 in0.0 mm 0.00 in0.0 mm 0.01 in0.3 mm
06:42 PM 37.9°F3.3°C 31.3°F-0.4°C 77% 2.0 mph W3.2 kmh W 3.0 mph4.8 kmh 30.23 in1023.7 mb 0.00 in0.0 mm 0.00 in0.0 mm 0.01 in0.3 mm
06:44 PM 37.9°F3.3°C 31.3°F-0.4°C 77% 1.0 mph W1.6 kmh W 3.0 mph4.8 kmh 30.23 in1023.7 mb 0.00 in0.0 mm 0.00 in0.0 mm 0.01 in0.3 mm
06:46 PM 37.9°F3.3°C 31.3°F-0.4°C 77% 1.0 mph W1.6 kmh W 3.0 mph4.8 kmh 30.23 in1023.7 mb 0.00 in0.0 mm 0.00 in0.0 mm 0.01 in0.3 mm
06:48 PM 37.9°F3.3°C 31.7°F-0.2°C 78% 1.0 mph W1.6 kmh W 3.0 mph4.8 kmh 30.23 in1023.7 mb 0.00 in0.0 mm 0.00 in0.0 mm 0.01 in0.3 mm
06:50 PM 37.9°F3.3°C 31.3°F-0.4°C 77% 1.0 mph W1.6 kmh W 3.0 mph4.8 kmh 30.23 in1023.7 mb 0.00 in0.0 mm 0.00 in0.0 mm 0.01 in0.3 mm
06:52 PM 38.0°F3.3°C 31.4°F-0.3°C 77% 2.0 mph WNW3.2 kmh WNW 3.0 mph4.8 kmh 30.23 in1023.7 mb 0.00 in0.0 mm 0.00 in0.0 mm 0.01 in0.3 mm
06:54 PM 38.0°F3.3°C 31.8°F-0.1°C 78% 1.0 mph NW1.6 kmh NW 3.0 mph4.8 kmh 30.23 in1023.7 mb 0.00 in0.0 mm 0.00 in0.0 mm 0.01 in0.3 mm
06:56 PM 38.0°F3.3°C 31.8°F-0.1°C 78% Calm Calm 3.0 mph4.8 kmh 30.23 in1023.7 mb 0.00 in0.0 mm 0.00 in0.0 mm 0.01 in0.3 mm
06:58 PM 37.9°F3.3°C 31.3°F-0.4°C 77% 1.0 mph WSW1.6 kmh WSW 3.0 mph4.8 kmh 30.23 in1023.7 mb 0.00 in0.0 mm 0.00 in0.0 mm 0.01 in0.3 mm
07:00 PM 38.0°F3.3°C 31.8°F-0.1°C 78% 1.0 mph WSW1.6 kmh WSW 3.0 mph4.8 kmh 30.23 in1023.7 mb 0.00 in0.0 mm 0.00 in0.0 mm 0.01 in0.3 mm
07:02 PM 38.0°F3.3°C 31.8°F-0.1°C 78% Calm Calm 3.0 mph4.8 kmh 30.23 in1023.7 mb 0.00 in0.0 mm 0.00 in0.0 mm 0.01 in0.3 mm
07:04 PM 38.0°F3.3°C 31.8°F-0.1°C 78% 2.0 mph WNW3.2 kmh WNW 3.0 mph4.8 kmh 30.23 in1023.7 mb 0.00 in0.0 mm 0.00 in0.0 mm 0.01 in0.3 mm
07:06 PM 38.0°F3.3°C 31.4°F-0.3°C 77% Calm Calm 3.0 mph4.8 kmh 30.23 in1023.7 mb 0.00 in0.0 mm 0.00 in0.0 mm 0.01 in0.3 mm
07:08 PM 38.0°F3.3°C 31.8°F-0.1°C 78% 2.0 mph WNW3.2 kmh WNW 3.0 mph4.8 kmh 30.23 in1023.7 mb 0.00 in0.0 mm 0.00 in0.0 mm 0.01 in0.3 mm
07:10 PM 37.9°F3.3°C 31.7°F-0.2°C 78% 1.0 mph WNW1.6 kmh WNW 3.0 mph4.8 kmh 30.23 in1023.7 mb 0.00 in0.0 mm 0.00 in0.0 mm 0.01 in0.3 mm
07:12 PM 38.0°F3.3°C 31.8°F-0.1°C 78% 1.0 mph WNW1.6 kmh WNW 3.0 mph4.8 kmh 30.23 in1023.7 mb 0.00 in0.0 mm 0.00 in0.0 mm 0.01 in0.3 mm
07:14 PM 38.0°F3.3°C 31.8°F-0.1°C 78% 1.0 mph WNW1.6 kmh WNW 3.0 mph4.8 kmh 30.23 in1023.7 mb 0.00 in0.0 mm 0.00 in0.0 mm 0.01 in0.3 mm
07:16 PM 38.0°F3.3°C 31.8°F-0.1°C 78% Calm Calm 3.0 mph4.8 kmh 30.23 in1023.7 mb 0.00 in0.0 mm 0.00 in0.0 mm 0.01 in0.3 mm
07:18 PM 37.9°F3.3°C 31.7°F-0.2°C 78% Calm Calm 3.0 mph4.8 kmh 30.23 in1023.7 mb 0.00 in0.0 mm 0.00 in0.0 mm 0.01 in0.3 mm
07:20 PM 38.0°F3.3°C 31.8°F-0.1°C 78% Calm Calm -- 30.23 in1023.7 mb 0.00 in0.0 mm 0.00 in0.0 mm 0.01 in0.3 mm
07:22 PM 37.9°F3.3°C 31.7°F-0.2°C 78% Calm Calm -- 30.23 in1023.7 mb 0.00 in0.0 mm 0.00 in0.0 mm 0.01 in0.3 mm
07:24 PM 37.9°F3.3°C 31.7°F-0.2°C 78% Calm Calm -- 30.23 in1023.7 mb 0.00 in0.0 mm 0.00 in0.0 mm 0.01 in0.3 mm
07:26 PM 37.9°F3.3°C 31.7°F-0.2°C 78% Calm Calm -- 30.23 in1023.7 mb 0.00 in0.0 mm 0.00 in0.0 mm 0.01 in0.3 mm
07:28 PM 37.9°F3.3°C 31.7°F-0.2°C 78% Calm Calm -- 30.23 in1023.7 mb 0.00 in0.0 mm 0.00 in0.0 mm 0.01 in0.3 mm
07:30 PM 37.9°F3.3°C 31.7°F-0.2°C 78% Calm Calm -- 30.23 in1023.7 mb 0.00 in0.0 mm 0.00 in0.0 mm 0.01 in0.3 mm
07:32 PM 37.9°F3.3°C 31.7°F-0.2°C 78% 1.0 mph WSW1.6 kmh WSW 2.0 mph3.2 kmh 30.23 in1023.7 mb 0.00 in0.0 mm 0.00 in0.0 mm 0.01 in0.3 mm
07:34 PM 37.9°F3.3°C 32.0°F0.0°C 79% 1.0 mph WSW1.6 kmh WSW 2.0 mph3.2 kmh 30.23 in1023.7 mb 0.00 in0.0 mm 0.00 in0.0 mm 0.01 in0.3 mm
07:36 PM 37.9°F3.3°C 32.0°F0.0°C 79% 1.0 mph WSW1.6 kmh WSW 2.0 mph3.2 kmh 30.23 in1023.7 mb 0.00 in0.0 mm 0.00 in0.0 mm 0.01 in0.3 mm
07:38 PM 37.9°F3.3°C 32.0°F0.0°C 79% 1.0 mph WSW1.6 kmh WSW 2.0 mph3.2 kmh 30.23 in1023.7 mb 0.00 in0.0 mm 0.00 in0.0 mm 0.01 in0.3 mm
07:40 PM 37.9°F3.3°C 32.0°F0.0°C 79% 1.0 mph WSW1.6 kmh WSW 2.0 mph3.2 kmh 30.23 in1023.7 mb 0.00 in0.0 mm 0.00 in0.0 mm 0.01 in0.3 mm
07:42 PM 37.9°F3.3°C 32.0°F0.0°C 79% 1.0 mph WSW1.6 kmh WSW 2.0 mph3.2 kmh 30.23 in1023.7 mb 0.00 in0.0 mm 0.00 in0.0 mm 0.01 in0.3 mm
07:44 PM 37.9°F3.3°C 32.0°F0.0°C 79% 1.0 mph WSW1.6 kmh WSW 2.0 mph3.2 kmh 30.23 in1023.7 mb 0.00 in0.0 mm 0.00 in0.0 mm 0.01 in0.3 mm
07:46 PM 37.9°F3.3°C 32.0°F0.0°C 79% 2.0 mph W3.2 kmh W 2.0 mph3.2 kmh 30.23 in1023.7 mb 0.00 in0.0 mm 0.00 in0.0 mm 0.01 in0.3 mm
07:48 PM 37.9°F3.3°C 32.0°F0.0°C 79% 2.0 mph NW3.2 kmh NW 2.0 mph3.2 kmh 30.23 in1023.7 mb 0.00 in0.0 mm 0.00 in0.0 mm 0.01 in0.3 mm
07:50 PM 37.9°F3.3°C 31.7°F-0.2°C 78% 1.0 mph NW1.6 kmh NW 3.0 mph4.8 kmh 30.23 in1023.7 mb 0.00 in0.0 mm 0.00 in0.0 mm 0.01 in0.3 mm
07:52 PM 37.9°F3.3°C 31.7°F-0.2°C 78% 1.0 mph WSW1.6 kmh WSW 3.0 mph4.8 kmh 30.24 in1024.0 mb 0.00 in0.0 mm 0.00 in0.0 mm 0.01 in0.3 mm
07:54 PM 37.9°F3.3°C 31.7°F-0.2°C 78% 2.0 mph WSW3.2 kmh WSW 3.0 mph4.8 kmh 30.24 in1024.0 mb 0.00 in0.0 mm 0.00 in0.0 mm 0.01 in0.3 mm
07:56 PM 37.9°F3.3°C 31.7°F-0.2°C 78% 1.0 mph WSW1.6 kmh WSW 3.0 mph4.8 kmh 30.24 in1024.0 mb 0.00 in0.0 mm 0.00 in0.0 mm 0.01 in0.3 mm
07:58 PM 37.9°F3.3°C 32.0°F0.0°C 79% 2.0 mph WSW3.2 kmh WSW 3.0 mph4.8 kmh 30.24 in1024.0 mb 0.00 in0.0 mm 0.00 in0.0 mm 0.01 in0.3 mm
08:00 PM 37.9°F3.3°C 31.7°F-0.2°C 78% 3.0 mph WNW4.8 kmh WNW 3.0 mph4.8 kmh 30.24 in1024.0 mb 0.00 in0.0 mm 0.00 in0.0 mm 0.01 in0.3 mm
08:02 PM 37.9°F3.3°C 31.7°F-0.2°C 78% 1.0 mph N1.6 kmh N 4.0 mph6.4 kmh 30.24 in1024.0 mb 0.00 in0.0 mm 0.00 in0.0 mm 0.01 in0.3 mm
08:04 PM 37.9°F3.3°C 31.7°F-0.2°C 78% 1.0 mph N1.6 kmh N 4.0 mph6.4 kmh 30.24 in1024.0 mb 0.00 in0.0 mm 0.00 in0.0 mm 0.01 in0.3 mm
08:06 PM 37.9°F3.3°C 31.7°F-0.2°C 78% 1.0 mph N1.6 kmh N 4.0 mph6.4 kmh 30.24 in1024.0 mb 0.00 in0.0 mm 0.00 in0.0 mm 0.01 in0.3 mm
08:08 PM 37.9°F3.3°C 31.7°F-0.2°C 78% 1.0 mph N1.6 kmh N 4.0 mph6.4 kmh 30.24 in1024.0 mb 0.00 in0.0 mm 0.00 in0.0 mm 0.01 in0.3 mm
08:10 PM 38.0°F3.3°C 31.8°F-0.1°C 78% 2.0 mph N3.2 kmh N 4.0 mph6.4 kmh 30.24 in1024.0 mb 0.00 in0.0 mm 0.00 in0.0 mm 0.01 in0.3 mm
08:12 PM 38.0°F3.3°C 31.8°F-0.1°C 78% 2.0 mph N3.2 kmh N 4.0 mph6.4 kmh 30.24 in1024.0 mb 0.00 in0.0 mm 0.00 in0.0 mm 0.01 in0.3 mm
08:14 PM 38.0°F3.3°C 31.8°F-0.1°C 78% 1.0 mph N1.6 kmh N 4.0 mph6.4 kmh 30.24 in1024.0 mb 0.00 in0.0 mm 0.00 in0.0 mm 0.01 in0.3 mm
08:16 PM 38.0°F3.3°C 31.8°F-0.1°C 78% Calm Calm 4.0 mph6.4 kmh 30.24 in1024.0 mb 0.00 in0.0 mm 0.00 in0.0 mm 0.01 in0.3 mm
08:18 PM 38.0°F3.3°C 31.8°F-0.1°C 78% 1.0 mph N1.6 kmh N 4.0 mph6.4 kmh 30.24 in1024.0 mb 0.00 in0.0 mm 0.00 in0.0 mm 0.01 in0.3 mm
08:20 PM 38.0°F3.3°C 31.8°F-0.1°C 78% 1.0 mph N1.6 kmh N 4.0 mph6.4 kmh 30.24 in1024.0 mb 0.00 in0.0 mm 0.00 in0.0 mm 0.01 in0.3 mm
08:22 PM 38.0°F3.3°C 32.1°F0.1°C 79% 1.0 mph N1.6 kmh N 4.0 mph6.4 kmh 30.24 in1024.0 mb 0.00 in0.0 mm 0.00 in0.0 mm 0.01 in0.3 mm
08:24 PM 38.0°F3.3°C 31.8°F-0.1°C 78% 2.0 mph NNW3.2 kmh NNW 4.0 mph6.4 kmh 30.24 in1024.0 mb 0.00 in0.0 mm 0.00 in0.0 mm 0.01 in0.3 mm
08:26 PM 37.9°F3.3°C 31.7°F-0.2°C 78% 3.0 mph NW4.8 kmh NW 4.0 mph6.4 kmh 30.24 in1024.0 mb 0.00 in0.0 mm 0.00 in0.0 mm 0.01 in0.3 mm
08:28 PM 37.9°F3.3°C 31.7°F-0.2°C 78% 1.0 mph N1.6 kmh N 4.0 mph6.4 kmh 30.25 in1024.4 mb 0.00 in0.0 mm 0.00 in0.0 mm 0.01 in0.3 mm
08:30 PM 37.9°F3.3°C 31.3°F-0.4°C 77% 1.0 mph N1.6 kmh N 4.0 mph6.4 kmh 30.24 in1024.0 mb 0.00 in0.0 mm 0.00 in0.0 mm 0.01 in0.3 mm
08:32 PM 38.0°F3.3°C 31.4°F-0.3°C 77% 2.0 mph N3.2 kmh N 4.0 mph6.4 kmh 30.25 in1024.4 mb 0.00 in0.0 mm 0.00 in0.0 mm 0.01 in0.3 mm
08:34 PM 38.0°F3.3°C 31.4°F-0.3°C 77% Calm Calm 4.0 mph6.4 kmh 30.25 in1024.4 mb 0.00 in0.0 mm 0.00 in0.0 mm 0.01 in0.3 mm
08:36 PM 38.0°F3.3°C 31.8°F-0.1°C 78% 2.0 mph NNW3.2 kmh NNW 4.0 mph6.4 kmh 30.25 in1024.4 mb 0.00 in0.0 mm 0.00 in0.0 mm 0.01 in0.3 mm
08:38 PM 38.0°F3.3°C 31.4°F-0.3°C 77% 2.0 mph N3.2 kmh N 4.0 mph6.4 kmh 30.25 in1024.4 mb 0.00 in0.0 mm 0.00 in0.0 mm 0.01 in0.3 mm
08:40 PM 37.9°F3.3°C 31.3°F-0.4°C 77% 2.0 mph N3.2 kmh N 4.0 mph6.4 kmh 30.25 in1024.4 mb 0.00 in0.0 mm 0.00 in0.0 mm 0.01 in0.3 mm
08:42 PM 38.0°F3.3°C 31.4°F-0.3°C 77% 2.0 mph N3.2 kmh N 3.0 mph4.8 kmh 30.25 in1024.4 mb 0.00 in0.0 mm 0.00 in0.0 mm 0.01 in0.3 mm
08:44 PM 37.9°F3.3°C 31.3°F-0.4°C 77% 2.0 mph N3.2 kmh N 3.0 mph4.8 kmh 30.25 in1024.4 mb 0.00 in0.0 mm 0.00 in0.0 mm 0.01 in0.3 mm
08:46 PM 38.0°F3.3°C 31.4°F-0.3°C 77% 2.0 mph N3.2 kmh N 3.0 mph4.8 kmh 30.25 in1024.4 mb 0.00 in0.0 mm 0.00 in0.0 mm 0.01 in0.3 mm
08:48 PM 38.0°F3.3°C 31.1°F-0.5°C 76% 2.0 mph N3.2 kmh N 3.0 mph4.8 kmh 30.25 in1024.4 mb 0.00 in0.0 mm 0.00 in0.0 mm 0.01 in0.3 mm
08:50 PM 37.9°F3.3°C 31.0°F-0.6°C 76% Calm Calm 3.0 mph4.8 kmh 30.25 in1024.4 mb 0.00 in0.0 mm 0.00 in0.0 mm 0.01 in0.3 mm
08:52 PM 37.9°F3.3°C 31.0°F-0.6°C 76% 1.0 mph N1.6 kmh N 3.0 mph4.8 kmh 30.25 in1024.4 mb 0.00 in0.0 mm 0.00 in0.0 mm 0.01 in0.3 mm
08:54 PM 37.9°F3.3°C 31.0°F-0.6°C 76% 2.0 mph N3.2 kmh N 3.0 mph4.8 kmh 30.25 in1024.4 mb 0.00 in0.0 mm 0.00 in0.0 mm 0.01 in0.3 mm
08:56 PM 38.0°F3.3°C 31.1°F-0.5°C 76% 2.0 mph N3.2 kmh N 3.0 mph4.8 kmh 30.25 in1024.4 mb 0.00 in0.0 mm 0.00 in0.0 mm 0.01 in0.3 mm
08:58 PM 37.9°F3.3°C 31.0°F-0.6°C 76% 2.0 mph NNW3.2 kmh NNW 3.0 mph4.8 kmh 30.26 in1024.7 mb 0.00 in0.0 mm 0.00 in0.0 mm 0.01 in0.3 mm
09:00 PM 37.9°F3.3°C 31.0°F-0.6°C 76% 3.0 mph NNW4.8 kmh NNW 3.0 mph4.8 kmh 30.26 in1024.7 mb 0.00 in0.0 mm 0.00 in0.0 mm 0.01 in0.3 mm
09:02 PM 37.9°F3.3°C 30.7°F-0.7°C 75% 3.0 mph NW4.8 kmh NW 4.0 mph6.4 kmh 30.26 in1024.7 mb 0.00 in0.0 mm 0.00 in0.0 mm 0.01 in0.3 mm
09:04 PM 37.9°F3.3°C 30.7°F-0.7°C 75% 1.0 mph N1.6 kmh N 4.0 mph6.4 kmh 30.26 in1024.7 mb 0.00 in0.0 mm 0.00 in0.0 mm 0.01 in0.3 mm
09:06 PM 37.9°F3.3°C 31.0°F-0.6°C 76% 1.0 mph N1.6 kmh N 4.0 mph6.4 kmh 30.26 in1024.7 mb 0.00 in0.0 mm 0.00 in0.0 mm 0.01 in0.3 mm
09:08 PM 37.9°F3.3°C 31.0°F-0.6°C 76% 2.0 mph NNW3.2 kmh NNW 4.0 mph6.4 kmh 30.26 in1024.7 mb 0.00 in0.0 mm 0.00 in0.0 mm 0.01 in0.3 mm
09:10 PM 37.9°F3.3°C 30.7°F-0.7°C 75% 2.0 mph 3.2 kmh 4.0 mph6.4 kmh 30.26 in1024.7 mb 0.00 in0.0 mm 0.00 in0.0 mm 0.01 in0.3 mm
09:12 PM 37.9°F3.3°C 31.0°F-0.6°C 76% 1.0 mph NNW1.6 kmh NNW 4.0 mph6.4 kmh 30.26 in1024.7 mb 0.00 in0.0 mm 0.00 in0.0 mm 0.01 in0.3 mm
09:14 PM 37.9°F3.3°C 30.7°F-0.7°C 75% 4.0 mph NW6.4 kmh NW 6.0 mph9.7 kmh 30.26 in1024.7 mb 0.00 in0.0 mm 0.00 in0.0 mm 0.01 in0.3 mm
09:16 PM 37.9°F3.3°C 30.4°F-0.9°C 74% 2.0 mph NNW3.2 kmh NNW 7.0 mph11.3 kmh 30.26 in1024.7 mb 0.00 in0.0 mm 0.00 in0.0 mm 0.01 in0.3 mm
09:18 PM 37.8°F3.2°C 30.3°F-0.9°C 74% 2.0 mph NNW3.2 kmh NNW 7.0 mph11.3 kmh 30.26 in1024.7 mb 0.00 in0.0 mm 0.00 in0.0 mm 0.01 in0.3 mm
09:20 PM 37.8°F3.2°C 30.3°F-0.9°C 74% 2.0 mph NW3.2 kmh NW 7.0 mph11.3 kmh 30.26 in1024.7 mb 0.00 in0.0 mm 0.00 in0.0 mm 0.01 in0.3 mm
09:22 PM 37.8°F3.2°C 30.3°F-0.9°C 74% 1.0 mph NW1.6 kmh NW 7.0 mph11.3 kmh 30.27 in1025.1 mb 0.00 in0.0 mm 0.00 in0.0 mm 0.01 in0.3 mm
09:24 PM 37.8°F3.2°C 30.3°F-0.9°C 74% 3.0 mph NW4.8 kmh NW 7.0 mph11.3 kmh 30.27 in1025.1 mb 0.00 in0.0 mm 0.00 in0.0 mm 0.01 in0.3 mm
09:26 PM 37.8°F3.2°C 30.3°F-0.9°C 74% 3.0 mph NW4.8 kmh NW 7.0 mph11.3 kmh 30.27 in1025.1 mb 0.00 in0.0 mm 0.00 in0.0 mm 0.01 in0.3 mm
09:28 PM 37.7°F3.2°C 29.8°F-1.2°C 73% 5.0 mph NE8.0 kmh NE 7.0 mph11.3 kmh 30.27 in1025.1 mb 0.00 in0.0 mm 0.00 in0.0 mm 0.01 in0.3 mm
09:30 PM 37.7°F3.2°C 29.8°F-1.2°C 73% 2.0 mph NNW3.2 kmh NNW 7.0 mph11.3 kmh 30.27 in1025.1 mb 0.00 in0.0 mm 0.00 in0.0 mm 0.01 in0.3 mm
09:32 PM 37.7°F3.2°C 29.8°F-1.2°C 73% 5.0 mph NW8.0 kmh NW 7.0 mph11.3 kmh 30.27 in1025.1 mb 0.00 in0.0 mm 0.00 in0.0 mm 0.01 in0.3 mm
09:34 PM 37.6°F3.1°C 29.7°F-1.3°C 73% 1.0 mph N1.6 kmh N 7.0 mph11.3 kmh 30.27 in1025.1 mb 0.00 in0.0 mm 0.00 in0.0 mm 0.01 in0.3 mm
09:36 PM 37.6°F3.1°C 29.7°F-1.3°C 73% 4.0 mph NW6.4 kmh NW 7.0 mph11.3 kmh 30.27 in1025.1 mb 0.00 in0.0 mm 0.00 in0.0 mm 0.01 in0.3 mm
09:38 PM 37.6°F3.1°C 29.7°F-1.3°C 73% 2.0 mph N3.2 kmh N 7.0 mph11.3 kmh 30.27 in1025.1 mb 0.00 in0.0 mm 0.00 in0.0 mm 0.01 in0.3 mm
09:40 PM 37.5°F3.1°C 29.3°F-1.5°C 72% 2.0 mph NE3.2 kmh NE 7.0 mph11.3 kmh 30.27 in1025.1 mb 0.00 in0.0 mm 0.00 in0.0 mm 0.01 in0.3 mm
09:42 PM 37.5°F3.1°C 29.3°F-1.5°C 72% 2.0 mph NNE3.2 kmh NNE 7.0 mph11.3 kmh 30.27 in1025.1 mb 0.00 in0.0 mm 0.00 in0.0 mm 0.01 in0.3 mm
09:44 PM 37.5°F3.1°C 29.6°F-1.3°C 73% 2.0 mph NNE3.2 kmh NNE 7.0 mph11.3 kmh 30.27 in1025.1 mb 0.00 in0.0 mm 0.00 in0.0 mm 0.01 in0.3 mm
09:46 PM 37.4°F3.0°C 29.2°F-1.6°C 72% 4.0 mph NNE6.4 kmh NNE 7.0 mph11.3 kmh 30.27 in1025.1 mb 0.00 in0.0 mm 0.00 in0.0 mm 0.01 in0.3 mm
09:48 PM 37.4°F3.0°C 29.2°F-1.6°C 72% Calm Calm 7.0 mph11.3 kmh 30.28 in1025.4 mb 0.00 in0.0 mm 0.00 in0.0 mm 0.01 in0.3 mm
09:50 PM 37.4°F3.0°C 29.2°F-1.6°C 72% 1.0 mph N1.6 kmh N 7.0 mph11.3 kmh 30.28 in1025.4 mb 0.00 in0.0 mm 0.00 in0.0 mm 0.01 in0.3 mm
09:52 PM 37.3°F2.9°C 29.5°F-1.4°C 73% 1.0 mph N1.6 kmh N 7.0 mph11.3 kmh 30.28 in1025.4 mb 0.00 in0.0 mm 0.00 in0.0 mm 0.01 in0.3 mm
09:54 PM 37.3°F2.9°C 29.5°F-1.4°C 73% 2.0 mph NE3.2 kmh NE 4.0 mph6.4 kmh 30.28 in1025.4 mb 0.00 in0.0 mm 0.00 in0.0 mm 0.01 in0.3 mm
09:56 PM 37.3°F2.9°C 29.5°F-1.4°C 73% 2.0 mph N3.2 kmh N 4.0 mph6.4 kmh 30.28 in1025.4 mb 0.00 in0.0 mm 0.00 in0.0 mm 0.01 in0.3 mm
09:58 PM 37.3°F2.9°C 29.1°F-1.6°C 72% 1.0 mph N1.6 kmh N 4.0 mph6.4 kmh 30.28 in1025.4 mb 0.00 in0.0 mm 0.00 in0.0 mm 0.01 in0.3 mm
10:00 PM 37.2°F2.9°C 29.0°F-1.7°C 72% 2.0 mph N3.2 kmh N 4.0 mph6.4 kmh 30.28 in1025.4 mb 0.00 in0.0 mm 0.00 in0.0 mm 0.01 in0.3 mm
10:02 PM 37.2°F2.9°C 29.0°F-1.7°C 72% 4.0 mph ENE6.4 kmh ENE 4.0 mph6.4 kmh 30.28 in1025.4 mb 0.00 in0.0 mm 0.00 in0.0 mm 0.01 in0.3 mm
10:04 PM 37.2°F2.9°C 29.0°F-1.7°C 72% 3.0 mph N4.8 kmh N 8.0 mph12.9 kmh 30.28 in1025.4 mb 0.00 in0.0 mm 0.00 in0.0 mm 0.01 in0.3 mm
10:06 PM 37.2°F2.9°C 29.0°F-1.7°C 72% 1.0 mph NNW1.6 kmh NNW 8.0 mph12.9 kmh 30.28 in1025.4 mb 0.00 in0.0 mm 0.00 in0.0 mm 0.01 in0.3 mm
10:08 PM 37.1°F2.8°C 28.6°F-1.9°C 71% 1.0 mph NNW1.6 kmh NNW 8.0 mph12.9 kmh 30.28 in1025.4 mb 0.00 in0.0 mm 0.00 in0.0 mm 0.01 in0.3 mm
10:10 PM 37.1°F2.8°C 28.9°F-1.7°C 72% 3.0 mph NE4.8 kmh NE 8.0 mph12.9 kmh 30.28 in1025.4 mb 0.00 in0.0 mm 0.00 in0.0 mm 0.01 in0.3 mm
10:12 PM 37.1°F2.8°C 28.6°F-1.9°C 71% 2.0 mph NNE3.2 kmh NNE 8.0 mph12.9 kmh 30.28 in1025.4 mb 0.00 in0.0 mm 0.00 in0.0 mm 0.01 in0.3 mm
10:14 PM 37.1°F2.8°C 28.9°F-1.7°C 72% 1.0 mph N1.6 kmh N 8.0 mph12.9 kmh 30.28 in1025.4 mb 0.00 in0.0 mm 0.00 in0.0 mm 0.01 in0.3 mm
10:16 PM 37.1°F2.8°C 28.9°F-1.7°C 72% 2.0 mph N3.2 kmh N 8.0 mph12.9 kmh 30.28 in1025.4 mb 0.00 in0.0 mm 0.00 in0.0 mm 0.01 in0.3 mm
10:18 PM 37.1°F2.8°C 28.9°F-1.7°C 72% 4.0 mph NNE6.4 kmh NNE 8.0 mph12.9 kmh 30.28 in1025.4 mb 0.00 in0.0 mm 0.00 in0.0 mm 0.01 in0.3 mm
10:20 PM 37.1°F2.8°C 28.6°F-1.9°C 71% 3.0 mph WNW4.8 kmh WNW 8.0 mph12.9 kmh 30.28 in1025.4 mb 0.00 in0.0 mm 0.00 in0.0 mm 0.01 in0.3 mm
10:22 PM 37.1°F2.8°C 28.6°F-1.9°C 71% 3.0 mph NNE4.8 kmh NNE 8.0 mph12.9 kmh 30.28 in1025.4 mb 0.00 in0.0 mm 0.00 in0.0 mm 0.01 in0.3 mm
10:24 PM 37.0°F2.8°C 28.5°F-1.9°C 71% 3.0 mph NE4.8 kmh NE 8.0 mph12.9 kmh 30.28 in1025.4 mb 0.00 in0.0 mm 0.00 in0.0 mm 0.01 in0.3 mm
10:26 PM 37.1°F2.8°C 28.6°F-1.9°C 71% 4.0 mph NW6.4 kmh NW 8.0 mph12.9 kmh 30.28 in1025.4 mb 0.00 in0.0 mm 0.00 in0.0 mm 0.01 in0.3 mm
10:28 PM 37.0°F2.8°C 28.5°F-1.9°C 71% 2.0 mph 3.2 kmh 8.0 mph12.9 kmh 30.28 in1025.4 mb 0.00 in0.0 mm 0.00 in0.0 mm 0.01 in0.3 mm
10:30 PM 37.1°F2.8°C 28.6°F-1.9°C 71% 2.0 mph 3.2 kmh 8.0 mph12.9 kmh 30.28 in1025.4 mb 0.00 in0.0 mm 0.00 in0.0 mm 0.01 in0.3 mm
10:32 PM 37.1°F2.8°C 28.6°F-1.9°C 71% Calm Calm 8.0 mph12.9 kmh 30.28 in1025.4 mb 0.00 in0.0 mm 0.00 in0.0 mm 0.01 in0.3 mm
10:34 PM 37.1°F2.8°C 28.6°F-1.9°C 71% 1.0 mph NNW1.6 kmh NNW 6.0 mph9.7 kmh 30.28 in1025.4 mb 0.00 in0.0 mm 0.00 in0.0 mm 0.01 in0.3 mm
10:36 PM 37.1°F2.8°C 28.6°F-1.9°C 71% 1.0 mph N1.6 kmh N 6.0 mph9.7 kmh 30.28 in1025.4 mb 0.00 in0.0 mm 0.00 in0.0 mm 0.01 in0.3 mm
10:38 PM 37.0°F2.8°C 28.5°F-1.9°C 71% 1.0 mph N1.6 kmh N 6.0 mph9.7 kmh 30.28 in1025.4 mb 0.00 in0.0 mm 0.00 in0.0 mm 0.01 in0.3 mm
10:40 PM 37.0°F2.8°C 28.8°F-1.8°C 72% 2.0 mph NE3.2 kmh NE 6.0 mph9.7 kmh 30.28 in1025.4 mb 0.00 in0.0 mm 0.00 in0.0 mm 0.01 in0.3 mm
10:42 PM 37.0°F2.8°C 28.8°F-1.8°C 72% 2.0 mph N3.2 kmh N 6.0 mph9.7 kmh 30.28 in1025.4 mb 0.00 in0.0 mm 0.00 in0.0 mm 0.01 in0.3 mm
10:44 PM 37.0°F2.8°C 28.5°F-1.9°C 71% Calm Calm 3.0 mph4.8 kmh 30.28 in1025.4 mb 0.00 in0.0 mm 0.00 in0.0 mm 0.01 in0.3 mm
10:46 PM 37.0°F2.8°C 28.8°F-1.8°C 72% 2.0 mph NW3.2 kmh NW 3.0 mph4.8 kmh 30.28 in1025.4 mb 0.00 in0.0 mm 0.00 in0.0 mm 0.01 in0.3 mm
10:48 PM 37.0°F2.8°C 28.8°F-1.8°C 72% 2.0 mph N3.2 kmh N 3.0 mph4.8 kmh 30.28 in1025.4 mb 0.00 in0.0 mm 0.00 in0.0 mm 0.01 in0.3 mm
10:50 PM 37.0°F2.8°C 28.8°F-1.8°C 72% 2.0 mph N3.2 kmh N 3.0 mph4.8 kmh 30.28 in1025.4 mb 0.00 in0.0 mm 0.00 in0.0 mm 0.01 in0.3 mm
10:54 PM 36.9°F2.7°C 28.7°F-1.8°C 72% 1.0 mph NE1.6 kmh NE 3.0 mph4.8 kmh 30.28 in1025.4 mb 0.00 in0.0 mm 0.00 in0.0 mm 0.01 in0.3 mm
10:56 PM 37.0°F2.8°C 28.8°F-1.8°C 72% 1.0 mph NE1.6 kmh NE 3.0 mph4.8 kmh 30.28 in1025.4 mb 0.00 in0.0 mm 0.00 in0.0 mm 0.01 in0.3 mm
10:58 PM 36.9°F2.7°C 28.7°F-1.8°C 72% 2.0 mph 3.2 kmh 4.0 mph6.4 kmh 30.28 in1025.4 mb 0.00 in0.0 mm 0.00 in0.0 mm 0.01 in0.3 mm
11:00 PM 36.9°F2.7°C 28.7°F-1.8°C 72% 1.0 mph NNW1.6 kmh NNW 4.0 mph6.4 kmh 30.28 in1025.4 mb 0.00 in0.0 mm 0.00 in0.0 mm 0.01 in0.3 mm
11:02 PM 36.9°F2.7°C 28.7°F-1.8°C 72% 1.0 mph NNW1.6 kmh NNW 4.0 mph6.4 kmh 30.28 in1025.4 mb 0.00 in0.0 mm 0.00 in0.0 mm 0.01 in0.3 mm
11:06 PM 36.9°F2.7°C 28.7°F-1.8°C 72% 1.0 mph NNE1.6 kmh NNE 4.0 mph6.4 kmh 30.28 in1025.4 mb 0.00 in0.0 mm 0.00 in0.0 mm 0.01 in0.3 mm
11:08 PM 36.9°F2.7°C 28.7°F-1.8°C 72% 1.0 mph NNE1.6 kmh NNE 4.0 mph6.4 kmh 30.28 in1025.4 mb 0.00 in0.0 mm 0.00 in0.0 mm 0.01 in0.3 mm
11:10 PM 36.9°F2.7°C 28.7°F-1.8°C 72% 3.0 mph NE4.8 kmh NE 4.0 mph6.4 kmh 30.28 in1025.4 mb 0.00 in0.0 mm 0.00 in0.0 mm 0.01 in0.3 mm
11:12 PM 36.8°F2.7°C 28.6°F-1.9°C 72% 3.0 mph NNW4.8 kmh NNW 4.0 mph6.4 kmh 30.28 in1025.4 mb 0.00 in0.0 mm 0.00 in0.0 mm 0.01 in0.3 mm
11:14 PM 36.8°F2.7°C 28.6°F-1.9°C 72% 1.0 mph NNE1.6 kmh NNE 4.0 mph6.4 kmh 30.28 in1025.4 mb 0.00 in0.0 mm 0.00 in0.0 mm 0.01 in0.3 mm
11:16 PM 36.8°F2.7°C 28.6°F-1.9°C 72% 1.0 mph NNE1.6 kmh NNE 4.0 mph6.4 kmh 30.28 in1025.4 mb 0.00 in0.0 mm 0.00 in0.0 mm 0.01 in0.3 mm
11:18 PM 36.8°F2.7°C 28.6°F-1.9°C 72% 2.0 mph NNE3.2 kmh NNE 3.0 mph4.8 kmh 30.28 in1025.4 mb 0.00 in0.0 mm 0.00 in0.0 mm 0.01 in0.3 mm
11:20 PM 36.8°F2.7°C 28.6°F-1.9°C 72% 1.0 mph NNE1.6 kmh NNE 3.0 mph4.8 kmh 30.28 in1025.4 mb 0.00 in0.0 mm 0.00 in0.0 mm 0.01 in0.3 mm
11:22 PM 36.8°F2.7°C 29.0°F-1.7°C 73% Calm Calm 3.0 mph4.8 kmh 30.28 in1025.4 mb 0.00 in0.0 mm 0.00 in0.0 mm 0.01 in0.3 mm
11:24 PM 36.8°F2.7°C 28.6°F-1.9°C 72% 1.0 mph NE1.6 kmh NE 3.0 mph4.8 kmh 30.28 in1025.4 mb 0.00 in0.0 mm 0.00 in0.0 mm 0.01 in0.3 mm
11:26 PM 36.8°F2.7°C 28.6°F-1.9°C 72% 3.0 mph NW4.8 kmh NW 6.0 mph9.7 kmh 30.28 in1025.4 mb 0.00 in0.0 mm 0.00 in0.0 mm 0.01 in0.3 mm
11:28 PM 36.8°F2.7°C 28.6°F-1.9°C 72% 1.0 mph NW1.6 kmh NW 6.0 mph9.7 kmh 30.28 in1025.4 mb 0.00 in0.0 mm 0.00 in0.0 mm 0.01 in0.3 mm
11:30 PM 36.7°F2.6°C 28.5°F-1.9°C 72% 1.0 mph NE1.6 kmh NE 6.0 mph9.7 kmh 30.28 in1025.4 mb 0.00 in0.0 mm 0.00 in0.0 mm 0.01 in0.3 mm
11:32 PM 36.7°F2.6°C 28.5°F-1.9°C 72% 1.0 mph NE1.6 kmh NE 6.0 mph9.7 kmh 30.28 in1025.4 mb 0.00 in0.0 mm 0.00 in0.0 mm 0.01 in0.3 mm
11:34 PM 36.7°F2.6°C 28.5°F-1.9°C 72% 6.0 mph ENE9.7 kmh ENE 6.0 mph9.7 kmh 30.28 in1025.4 mb 0.00 in0.0 mm 0.00 in0.0 mm 0.01 in0.3 mm
11:36 PM 36.7°F2.6°C 28.5°F-1.9°C 72% 3.0 mph NE4.8 kmh NE 6.0 mph9.7 kmh 30.28 in1025.4 mb 0.00 in0.0 mm 0.00 in0.0 mm 0.01 in0.3 mm
11:38 PM 36.7°F2.6°C 28.5°F-1.9°C 72% 3.0 mph N4.8 kmh N 6.0 mph9.7 kmh 30.28 in1025.4 mb 0.00 in0.0 mm 0.00 in0.0 mm 0.01 in0.3 mm
11:40 PM 36.7°F2.6°C 28.5°F-1.9°C 72% 1.0 mph N1.6 kmh N 6.0 mph9.7 kmh 30.28 in1025.4 mb 0.00 in0.0 mm 0.00 in0.0 mm 0.01 in0.3 mm
11:42 PM 36.7°F2.6°C 28.5°F-1.9°C 72% 1.0 mph NE1.6 kmh NE 6.0 mph9.7 kmh 30.28 in1025.4 mb 0.00 in0.0 mm 0.00 in0.0 mm 0.01 in0.3 mm
11:44 PM 36.6°F2.6°C 28.4°F-2.0°C 72% 4.0 mph NE6.4 kmh NE 6.0 mph9.7 kmh 30.28 in1025.4 mb 0.00 in0.0 mm 0.00 in0.0 mm 0.01 in0.3 mm
11:46 PM 36.6°F2.6°C 28.1°F-2.2°C 71% 2.0 mph N3.2 kmh N 5.0 mph8.0 kmh 30.28 in1025.4 mb 0.00 in0.0 mm 0.00 in0.0 mm 0.01 in0.3 mm
11:48 PM 36.6°F2.6°C 28.4°F-2.0°C 72% 3.0 mph NNE4.8 kmh NNE 6.0 mph9.7 kmh 30.28 in1025.4 mb 0.00 in0.0 mm 0.00 in0.0 mm 0.01 in0.3 mm
11:50 PM 36.6°F2.6°C 28.1°F-2.2°C 71% 3.0 mph NE4.8 kmh NE 6.0 mph9.7 kmh 30.28 in1025.4 mb 0.00 in0.0 mm 0.00 in0.0 mm 0.01 in0.3 mm
11:52 PM 36.6°F2.6°C 28.1°F-2.2°C 71% 2.0 mph NE3.2 kmh NE 6.0 mph9.7 kmh 30.28 in1025.4 mb 0.00 in0.0 mm 0.00 in0.0 mm 0.01 in0.3 mm
11:54 PM 36.6°F2.6°C 28.1°F-2.2°C 71% 2.0 mph NE3.2 kmh NE 6.0 mph9.7 kmh 30.28 in1025.4 mb 0.00 in0.0 mm 0.00 in0.0 mm 0.01 in0.3 mm
11:56 PM 36.6°F2.6°C 28.1°F-2.2°C 71% 2.0 mph ENE3.2 kmh ENE 6.0 mph9.7 kmh 30.28 in1025.4 mb 0.00 in0.0 mm 0.00 in0.0 mm 0.01 in0.3 mm
11:58 PM 36.6°F2.6°C 28.4°F-2.0°C 72% 1.0 mph E1.6 kmh E 6.0 mph9.7 kmh 30.28 in1025.4 mb 0.00 in0.0 mm 0.00 in0.0 mm 0.01 in0.3 mm